<?xml version="1.0" encoding="UTF-8" standalone="no" ?>
<gpx xmlns="http://www.topografix.com/GPX/1/1" xmlns:xsi="http://www.w3.org/2001/XMLSchema-instance" xsi:schemaLocation="http://www.topografix.com/GPX/1/1 http://www.topografix.com/GPX/1/1/gpx.xsd" version="1.1" creator="VisuGPX - https://www.visugpx.com">
  <metadata>
    <name>2022-05-28 Montrond dans le Jura</name>
  </metadata>
  <trk>
    <name><![CDATA[2022-05-28 Montrond dans le Jura]]></name>
    <extensions>
      <line xmlns="http://www.topografix.com/GPX/gpx_style/0/2">
        <color>0000FF</color>
        <opacity>0.59</opacity>
        <width>6.0</width>
      </line>
    </extensions>
    <trkseg>
      <trkpt lat="46.36736" lon="6.01859">
        <ele>1311.6</ele>
        <time>2022-05-28T08:34:27.000Z</time>
      </trkpt>
      <trkpt lat="46.3673" lon="6.01838">
        <ele>1313.4</ele>
        <time>2022-05-28T08:34:37.000Z</time>
      </trkpt>
      <trkpt lat="46.36723" lon="6.01816">
        <ele>1314.6</ele>
        <time>2022-05-28T08:34:47.000Z</time>
      </trkpt>
      <trkpt lat="46.36716" lon="6.01801">
        <ele>1315.2</ele>
        <time>2022-05-28T08:34:56.295Z</time>
      </trkpt>
      <trkpt lat="46.36714" lon="6.01789">
        <ele>1316.1</ele>
        <time>2022-05-28T08:35:05.754Z</time>
      </trkpt>
      <trkpt lat="46.36708" lon="6.01773">
        <ele>1316.6</ele>
        <time>2022-05-28T08:35:15.256Z</time>
      </trkpt>
      <trkpt lat="46.3671" lon="6.0176">
        <ele>1317</ele>
        <time>2022-05-28T08:35:25.000Z</time>
      </trkpt>
      <trkpt lat="46.36709" lon="6.01744">
        <ele>1317.4</ele>
        <time>2022-05-28T08:35:34.692Z</time>
      </trkpt>
      <trkpt lat="46.36707" lon="6.01732">
        <ele>1318.3</ele>
        <time>2022-05-28T08:35:43.915Z</time>
      </trkpt>
      <trkpt lat="46.36719" lon="6.01716">
        <ele>1318.3</ele>
        <time>2022-05-28T08:35:54.000Z</time>
      </trkpt>
      <trkpt lat="46.36722" lon="6.01699">
        <ele>1318</ele>
        <time>2022-05-28T08:36:03.492Z</time>
      </trkpt>
      <trkpt lat="46.36721" lon="6.0168">
        <ele>1318.2</ele>
        <time>2022-05-28T08:36:12.499Z</time>
      </trkpt>
      <trkpt lat="46.3672" lon="6.01664">
        <ele>1318.3</ele>
        <time>2022-05-28T08:36:22.000Z</time>
      </trkpt>
      <trkpt lat="46.3672" lon="6.0165">
        <ele>1318.2</ele>
        <time>2022-05-28T08:36:31.458Z</time>
      </trkpt>
      <trkpt lat="46.3672" lon="6.01635">
        <ele>1318.1</ele>
        <time>2022-05-28T08:36:40.533Z</time>
      </trkpt>
      <trkpt lat="46.36712" lon="6.01628">
        <ele>1318.3</ele>
        <time>2022-05-28T08:36:49.851Z</time>
      </trkpt>
      <trkpt lat="46.36702" lon="6.01639">
        <ele>1319.5</ele>
        <time>2022-05-28T08:36:59.118Z</time>
      </trkpt>
      <trkpt lat="46.3669" lon="6.01647">
        <ele>1321</ele>
        <time>2022-05-28T08:37:08.634Z</time>
      </trkpt>
      <trkpt lat="46.36679" lon="6.0165">
        <ele>1322</ele>
        <time>2022-05-28T08:37:17.936Z</time>
      </trkpt>
      <trkpt lat="46.36671" lon="6.01645">
        <ele>1322.6</ele>
        <time>2022-05-28T08:37:27.000Z</time>
      </trkpt>
      <trkpt lat="46.36664" lon="6.01634">
        <ele>1323.5</ele>
        <time>2022-05-28T08:37:37.000Z</time>
      </trkpt>
      <trkpt lat="46.36662" lon="6.01623">
        <ele>1323.2</ele>
        <time>2022-05-28T08:37:47.000Z</time>
      </trkpt>
      <trkpt lat="46.36654" lon="6.01612">
        <ele>1324.1</ele>
        <time>2022-05-28T08:37:57.000Z</time>
      </trkpt>
      <trkpt lat="46.36649" lon="6.01592">
        <ele>1323</ele>
        <time>2022-05-28T08:38:06.672Z</time>
      </trkpt>
      <trkpt lat="46.36645" lon="6.01577">
        <ele>1322.7</ele>
        <time>2022-05-28T08:38:16.382Z</time>
      </trkpt>
      <trkpt lat="46.3664" lon="6.01562">
        <ele>1323.8</ele>
        <time>2022-05-28T08:38:25.715Z</time>
      </trkpt>
      <trkpt lat="46.36635" lon="6.0155">
        <ele>1324.8</ele>
        <time>2022-05-28T08:38:35.000Z</time>
      </trkpt>
      <trkpt lat="46.3663" lon="6.01533">
        <ele>1325.1</ele>
        <time>2022-05-28T08:38:44.094Z</time>
      </trkpt>
      <trkpt lat="46.36625" lon="6.01519">
        <ele>1326.1</ele>
        <time>2022-05-28T08:38:53.393Z</time>
      </trkpt>
      <trkpt lat="46.36623" lon="6.01514">
        <ele>1326.6</ele>
        <time>2022-05-28T08:39:03.000Z</time>
      </trkpt>
      <trkpt lat="46.36623" lon="6.01515">
        <ele>1326.6</ele>
        <time>2022-05-28T08:39:13.000Z</time>
      </trkpt>
      <trkpt lat="46.36622" lon="6.01517">
        <ele>1326.8</ele>
        <time>2022-05-28T08:39:23.000Z</time>
      </trkpt>
      <trkpt lat="46.36623" lon="6.01514">
        <ele>1326.7</ele>
        <time>2022-05-28T08:39:56.000Z</time>
      </trkpt>
      <trkpt lat="46.36622" lon="6.01504">
        <ele>1327.1</ele>
        <time>2022-05-28T08:40:05.134Z</time>
      </trkpt>
      <trkpt lat="46.36619" lon="6.01481">
        <ele>1328.2</ele>
        <time>2022-05-28T08:40:14.172Z</time>
      </trkpt>
      <trkpt lat="46.36606" lon="6.01469">
        <ele>1330.4</ele>
        <time>2022-05-28T08:40:23.377Z</time>
      </trkpt>
      <trkpt lat="46.36598" lon="6.01458">
        <ele>1332.2</ele>
        <time>2022-05-28T08:40:33.000Z</time>
      </trkpt>
      <trkpt lat="46.36588" lon="6.01453">
        <ele>1332.7</ele>
        <time>2022-05-28T08:40:42.536Z</time>
      </trkpt>
      <trkpt lat="46.36584" lon="6.01442">
        <ele>1332.3</ele>
        <time>2022-05-28T08:40:51.573Z</time>
      </trkpt>
      <trkpt lat="46.36575" lon="6.01436">
        <ele>1334.7</ele>
        <time>2022-05-28T08:41:01.000Z</time>
      </trkpt>
      <trkpt lat="46.3657" lon="6.01417">
        <ele>1337</ele>
        <time>2022-05-28T08:41:11.000Z</time>
      </trkpt>
      <trkpt lat="46.36567" lon="6.01405">
        <ele>1337.4</ele>
        <time>2022-05-28T08:41:20.060Z</time>
      </trkpt>
      <trkpt lat="46.36562" lon="6.0139">
        <ele>1337</ele>
        <time>2022-05-28T08:41:29.096Z</time>
      </trkpt>
      <trkpt lat="46.36557" lon="6.01377">
        <ele>1337.1</ele>
        <time>2022-05-28T08:41:38.431Z</time>
      </trkpt>
      <trkpt lat="46.36555" lon="6.01361">
        <ele>1338</ele>
        <time>2022-05-28T08:41:48.000Z</time>
      </trkpt>
      <trkpt lat="46.36551" lon="6.01348">
        <ele>1338.6</ele>
        <time>2022-05-28T08:41:57.431Z</time>
      </trkpt>
      <trkpt lat="46.36548" lon="6.01331">
        <ele>1339</ele>
        <time>2022-05-28T08:42:07.433Z</time>
      </trkpt>
      <trkpt lat="46.36546" lon="6.01317">
        <ele>1338.8</ele>
        <time>2022-05-28T08:42:17.000Z</time>
      </trkpt>
      <trkpt lat="46.36542" lon="6.013">
        <ele>1338.9</ele>
        <time>2022-05-28T08:42:26.137Z</time>
      </trkpt>
      <trkpt lat="46.3654" lon="6.01282">
        <ele>1338.7</ele>
        <time>2022-05-28T08:42:35.434Z</time>
      </trkpt>
      <trkpt lat="46.36541" lon="6.01267">
        <ele>1338.6</ele>
        <time>2022-05-28T08:42:45.000Z</time>
      </trkpt>
      <trkpt lat="46.36542" lon="6.01252">
        <ele>1338.5</ele>
        <time>2022-05-28T08:42:54.373Z</time>
      </trkpt>
      <trkpt lat="46.36543" lon="6.01239">
        <ele>1338.3</ele>
        <time>2022-05-28T08:43:04.000Z</time>
      </trkpt>
      <trkpt lat="46.36544" lon="6.01224">
        <ele>1338.1</ele>
        <time>2022-05-28T08:43:13.217Z</time>
      </trkpt>
      <trkpt lat="46.36536" lon="6.01212">
        <ele>1339.4</ele>
        <time>2022-05-28T08:43:22.673Z</time>
      </trkpt>
      <trkpt lat="46.36528" lon="6.01209">
        <ele>1341</ele>
        <time>2022-05-28T08:43:32.000Z</time>
      </trkpt>
      <trkpt lat="46.36514" lon="6.01204">
        <ele>1342.5</ele>
        <time>2022-05-28T08:43:41.048Z</time>
      </trkpt>
      <trkpt lat="46.36503" lon="6.01197">
        <ele>1343</ele>
        <time>2022-05-28T08:43:50.233Z</time>
      </trkpt>
      <trkpt lat="46.36496" lon="6.01186">
        <ele>1344.3</ele>
        <time>2022-05-28T08:43:59.654Z</time>
      </trkpt>
      <trkpt lat="46.36495" lon="6.0117">
        <ele>1343.8</ele>
        <time>2022-05-28T08:44:10.000Z</time>
      </trkpt>
      <trkpt lat="46.3649" lon="6.01156">
        <ele>1344.6</ele>
        <time>2022-05-28T08:44:19.253Z</time>
      </trkpt>
      <trkpt lat="46.36476" lon="6.01155">
        <ele>1348.3</ele>
        <time>2022-05-28T08:44:28.612Z</time>
      </trkpt>
      <trkpt lat="46.36465" lon="6.01162">
        <ele>1350.2</ele>
        <time>2022-05-28T08:44:37.616Z</time>
      </trkpt>
      <trkpt lat="46.36457" lon="6.01178">
        <ele>1351.4</ele>
        <time>2022-05-28T08:44:47.213Z</time>
      </trkpt>
      <trkpt lat="46.36447" lon="6.01187">
        <ele>1352</ele>
        <time>2022-05-28T08:44:56.653Z</time>
      </trkpt>
      <trkpt lat="46.36437" lon="6.01185">
        <ele>1353.3</ele>
        <time>2022-05-28T08:45:06.000Z</time>
      </trkpt>
      <trkpt lat="46.36428" lon="6.01175">
        <ele>1353.8</ele>
        <time>2022-05-28T08:45:15.474Z</time>
      </trkpt>
      <trkpt lat="46.36421" lon="6.01165">
        <ele>1354.1</ele>
        <time>2022-05-28T08:45:24.733Z</time>
      </trkpt>
      <trkpt lat="46.36415" lon="6.01155">
        <ele>1354.8</ele>
        <time>2022-05-28T08:45:34.255Z</time>
      </trkpt>
      <trkpt lat="46.36407" lon="6.01147">
        <ele>1355.6</ele>
        <time>2022-05-28T08:45:43.615Z</time>
      </trkpt>
      <trkpt lat="46.36399" lon="6.01134">
        <ele>1356.3</ele>
        <time>2022-05-28T08:45:53.276Z</time>
      </trkpt>
      <trkpt lat="46.36394" lon="6.01125">
        <ele>1356.8</ele>
        <time>2022-05-28T08:46:02.574Z</time>
      </trkpt>
      <trkpt lat="46.36387" lon="6.01118">
        <ele>1358.4</ele>
        <time>2022-05-28T08:46:11.862Z</time>
      </trkpt>
      <trkpt lat="46.36376" lon="6.01112">
        <ele>1360.3</ele>
        <time>2022-05-28T08:46:21.236Z</time>
      </trkpt>
      <trkpt lat="46.36371" lon="6.011">
        <ele>1360.5</ele>
        <time>2022-05-28T08:46:30.251Z</time>
      </trkpt>
      <trkpt lat="46.36367" lon="6.01089">
        <ele>1360.7</ele>
        <time>2022-05-28T08:46:39.455Z</time>
      </trkpt>
      <trkpt lat="46.36365" lon="6.01077">
        <ele>1360.5</ele>
        <time>2022-05-28T08:46:49.000Z</time>
      </trkpt>
      <trkpt lat="46.36363" lon="6.01068">
        <ele>1360.6</ele>
        <time>2022-05-28T08:46:59.000Z</time>
      </trkpt>
      <trkpt lat="46.36357" lon="6.01055">
        <ele>1361.8</ele>
        <time>2022-05-28T08:47:09.000Z</time>
      </trkpt>
      <trkpt lat="46.36357" lon="6.0104">
        <ele>1360.6</ele>
        <time>2022-05-28T08:47:18.174Z</time>
      </trkpt>
      <trkpt lat="46.36355" lon="6.01024">
        <ele>1360.2</ele>
        <time>2022-05-28T08:47:27.672Z</time>
      </trkpt>
      <trkpt lat="46.36357" lon="6.01007">
        <ele>1359.6</ele>
        <time>2022-05-28T08:47:37.074Z</time>
      </trkpt>
      <trkpt lat="46.36356" lon="6.00991">
        <ele>1359.6</ele>
        <time>2022-05-28T08:47:46.236Z</time>
      </trkpt>
      <trkpt lat="46.36348" lon="6.00978">
        <ele>1363.6</ele>
        <time>2022-05-28T08:47:55.594Z</time>
      </trkpt>
      <trkpt lat="46.36338" lon="6.00968">
        <ele>1368.6</ele>
        <time>2022-05-28T08:48:05.000Z</time>
      </trkpt>
      <trkpt lat="46.36331" lon="6.00964">
        <ele>1371</ele>
        <time>2022-05-28T08:48:15.000Z</time>
      </trkpt>
      <trkpt lat="46.36315" lon="6.00953">
        <ele>1372.7</ele>
        <time>2022-05-28T08:48:24.335Z</time>
      </trkpt>
      <trkpt lat="46.36299" lon="6.00944">
        <ele>1374.8</ele>
        <time>2022-05-28T08:48:33.493Z</time>
      </trkpt>
      <trkpt lat="46.3629" lon="6.00935">
        <ele>1377.4</ele>
        <time>2022-05-28T08:48:43.000Z</time>
      </trkpt>
      <trkpt lat="46.36288" lon="6.00926">
        <ele>1377.9</ele>
        <time>2022-05-28T08:48:52.334Z</time>
      </trkpt>
      <trkpt lat="46.36285" lon="6.00917">
        <ele>1378.6</ele>
        <time>2022-05-28T08:49:02.000Z</time>
      </trkpt>
      <trkpt lat="46.36278" lon="6.00909">
        <ele>1380.7</ele>
        <time>2022-05-28T08:49:11.352Z</time>
      </trkpt>
      <trkpt lat="46.36267" lon="6.00903">
        <ele>1384</ele>
        <time>2022-05-28T08:49:21.000Z</time>
      </trkpt>
      <trkpt lat="46.36257" lon="6.00892">
        <ele>1385.6</ele>
        <time>2022-05-28T08:49:30.045Z</time>
      </trkpt>
      <trkpt lat="46.3625" lon="6.00878">
        <ele>1385.5</ele>
        <time>2022-05-28T08:49:39.554Z</time>
      </trkpt>
      <trkpt lat="46.36241" lon="6.00868">
        <ele>1386.2</ele>
        <time>2022-05-28T08:49:48.736Z</time>
      </trkpt>
      <trkpt lat="46.36232" lon="6.00861">
        <ele>1387.5</ele>
        <time>2022-05-28T08:49:58.135Z</time>
      </trkpt>
      <trkpt lat="46.36225" lon="6.00851">
        <ele>1388.9</ele>
        <time>2022-05-28T08:50:07.436Z</time>
      </trkpt>
      <trkpt lat="46.3622" lon="6.0084">
        <ele>1389.9</ele>
        <time>2022-05-28T08:50:17.000Z</time>
      </trkpt>
      <trkpt lat="46.36218" lon="6.00831">
        <ele>1390.3</ele>
        <time>2022-05-28T08:50:27.000Z</time>
      </trkpt>
      <trkpt lat="46.36214" lon="6.0082">
        <ele>1391</ele>
        <time>2022-05-28T08:50:37.000Z</time>
      </trkpt>
      <trkpt lat="46.36209" lon="6.00806">
        <ele>1391.9</ele>
        <time>2022-05-28T08:50:46.277Z</time>
      </trkpt>
      <trkpt lat="46.36206" lon="6.00793">
        <ele>1391.5</ele>
        <time>2022-05-28T08:50:55.352Z</time>
      </trkpt>
      <trkpt lat="46.36198" lon="6.00779">
        <ele>1392.8</ele>
        <time>2022-05-28T08:51:04.596Z</time>
      </trkpt>
      <trkpt lat="46.36192" lon="6.00766">
        <ele>1393.8</ele>
        <time>2022-05-28T08:51:15.000Z</time>
      </trkpt>
      <trkpt lat="46.36184" lon="6.00757">
        <ele>1395.6</ele>
        <time>2022-05-28T08:51:24.338Z</time>
      </trkpt>
      <trkpt lat="46.36174" lon="6.0075">
        <ele>1398.4</ele>
        <time>2022-05-28T08:51:34.000Z</time>
      </trkpt>
      <trkpt lat="46.36169" lon="6.0074">
        <ele>1398.9</ele>
        <time>2022-05-28T08:51:43.695Z</time>
      </trkpt>
      <trkpt lat="46.36162" lon="6.00729">
        <ele>1399.3</ele>
        <time>2022-05-28T08:51:53.134Z</time>
      </trkpt>
      <trkpt lat="46.36152" lon="6.00718">
        <ele>1400.6</ele>
        <time>2022-05-28T08:52:02.234Z</time>
      </trkpt>
      <trkpt lat="46.36144" lon="6.00711">
        <ele>1401.9</ele>
        <time>2022-05-28T08:52:12.000Z</time>
      </trkpt>
      <trkpt lat="46.36136" lon="6.0071">
        <ele>1403.5</ele>
        <time>2022-05-28T08:52:21.273Z</time>
      </trkpt>
      <trkpt lat="46.36125" lon="6.00706">
        <ele>1404.1</ele>
        <time>2022-05-28T08:52:30.396Z</time>
      </trkpt>
      <trkpt lat="46.36115" lon="6.00703">
        <ele>1404.9</ele>
        <time>2022-05-28T08:52:40.000Z</time>
      </trkpt>
      <trkpt lat="46.36105" lon="6.00702">
        <ele>1407.1</ele>
        <time>2022-05-28T08:52:49.575Z</time>
      </trkpt>
      <trkpt lat="46.36096" lon="6.00695">
        <ele>1409.3</ele>
        <time>2022-05-28T08:52:59.374Z</time>
      </trkpt>
      <trkpt lat="46.36087" lon="6.00684">
        <ele>1410.4</ele>
        <time>2022-05-28T08:53:08.697Z</time>
      </trkpt>
      <trkpt lat="46.3608" lon="6.00671">
        <ele>1409.3</ele>
        <time>2022-05-28T08:53:19.000Z</time>
      </trkpt>
      <trkpt lat="46.36069" lon="6.0067">
        <ele>1410.6</ele>
        <time>2022-05-28T08:53:28.512Z</time>
      </trkpt>
      <trkpt lat="46.36061" lon="6.00675">
        <ele>1412.2</ele>
        <time>2022-05-28T08:53:37.614Z</time>
      </trkpt>
      <trkpt lat="46.36051" lon="6.00689">
        <ele>1415.2</ele>
        <time>2022-05-28T08:53:47.000Z</time>
      </trkpt>
      <trkpt lat="46.36058" lon="6.00707">
        <ele>1416.6</ele>
        <time>2022-05-28T08:53:56.318Z</time>
      </trkpt>
      <trkpt lat="46.3607" lon="6.00718">
        <ele>1417</ele>
        <time>2022-05-28T08:54:06.292Z</time>
      </trkpt>
      <trkpt lat="46.36077" lon="6.00733">
        <ele>1417.5</ele>
        <time>2022-05-28T08:54:15.615Z</time>
      </trkpt>
      <trkpt lat="46.3608" lon="6.00745">
        <ele>1417.6</ele>
        <time>2022-05-28T08:54:25.000Z</time>
      </trkpt>
      <trkpt lat="46.36076" lon="6.00762">
        <ele>1418.8</ele>
        <time>2022-05-28T08:54:34.494Z</time>
      </trkpt>
      <trkpt lat="46.36071" lon="6.00776">
        <ele>1419.3</ele>
        <time>2022-05-28T08:54:43.576Z</time>
      </trkpt>
      <trkpt lat="46.36063" lon="6.00783">
        <ele>1419.8</ele>
        <time>2022-05-28T08:54:52.715Z</time>
      </trkpt>
      <trkpt lat="46.36053" lon="6.00783">
        <ele>1420.5</ele>
        <time>2022-05-28T08:55:02.095Z</time>
      </trkpt>
      <trkpt lat="46.36044" lon="6.00767">
        <ele>1421.9</ele>
        <time>2022-05-28T08:55:12.000Z</time>
      </trkpt>
      <trkpt lat="46.36032" lon="6.00764">
        <ele>1422</ele>
        <time>2022-05-28T08:55:21.292Z</time>
      </trkpt>
      <trkpt lat="46.36025" lon="6.00763">
        <ele>1422.7</ele>
        <time>2022-05-28T08:55:30.615Z</time>
      </trkpt>
      <trkpt lat="46.36019" lon="6.00756">
        <ele>1424.3</ele>
        <time>2022-05-28T08:55:39.753Z</time>
      </trkpt>
      <trkpt lat="46.36011" lon="6.00749">
        <ele>1425.8</ele>
        <time>2022-05-28T08:55:49.135Z</time>
      </trkpt>
      <trkpt lat="46.36001" lon="6.00748">
        <ele>1427</ele>
        <time>2022-05-28T08:55:58.332Z</time>
      </trkpt>
      <trkpt lat="46.35991" lon="6.0075">
        <ele>1428</ele>
        <time>2022-05-28T08:56:07.396Z</time>
      </trkpt>
      <trkpt lat="46.35982" lon="6.00741">
        <ele>1428.8</ele>
        <time>2022-05-28T08:56:17.000Z</time>
      </trkpt>
      <trkpt lat="46.35976" lon="6.00731">
        <ele>1429.1</ele>
        <time>2022-05-28T08:56:27.000Z</time>
      </trkpt>
      <trkpt lat="46.35977" lon="6.00736">
        <ele>1429.1</ele>
        <time>2022-05-28T08:56:37.000Z</time>
      </trkpt>
      <trkpt lat="46.35977" lon="6.00739">
        <ele>1429.2</ele>
        <time>2022-05-28T08:56:47.000Z</time>
      </trkpt>
      <trkpt lat="46.35974" lon="6.00742">
        <ele>1429.5</ele>
        <time>2022-05-28T08:56:57.000Z</time>
      </trkpt>
      <trkpt lat="46.35974" lon="6.00738">
        <ele>1429.4</ele>
        <time>2022-05-28T08:57:06.554Z</time>
      </trkpt>
      <trkpt lat="46.35963" lon="6.00734">
        <ele>1429.8</ele>
        <time>2022-05-28T08:57:15.596Z</time>
      </trkpt>
      <trkpt lat="46.3595" lon="6.00748">
        <ele>1430.1</ele>
        <time>2022-05-28T08:57:25.000Z</time>
      </trkpt>
      <trkpt lat="46.35941" lon="6.00755">
        <ele>1431.5</ele>
        <time>2022-05-28T08:57:34.278Z</time>
      </trkpt>
      <trkpt lat="46.35931" lon="6.00762">
        <ele>1434</ele>
        <time>2022-05-28T08:57:44.000Z</time>
      </trkpt>
      <trkpt lat="46.35923" lon="6.00759">
        <ele>1435.1</ele>
        <time>2022-05-28T08:57:54.000Z</time>
      </trkpt>
      <trkpt lat="46.35924" lon="6.00753">
        <ele>1434.5</ele>
        <time>2022-05-28T08:58:03.298Z</time>
      </trkpt>
      <trkpt lat="46.3592" lon="6.00746">
        <ele>1435</ele>
        <time>2022-05-28T08:58:12.695Z</time>
      </trkpt>
      <trkpt lat="46.35916" lon="6.00738">
        <ele>1434.7</ele>
        <time>2022-05-28T08:58:22.092Z</time>
      </trkpt>
      <trkpt lat="46.35909" lon="6.00736">
        <ele>1435.7</ele>
        <time>2022-05-28T08:58:32.000Z</time>
      </trkpt>
      <trkpt lat="46.35901" lon="6.00731">
        <ele>1436.5</ele>
        <time>2022-05-28T08:58:42.000Z</time>
      </trkpt>
      <trkpt lat="46.35891" lon="6.00722">
        <ele>1436.6</ele>
        <time>2022-05-28T08:58:52.000Z</time>
      </trkpt>
      <trkpt lat="46.35882" lon="6.00716">
        <ele>1437.4</ele>
        <time>2022-05-28T08:59:02.000Z</time>
      </trkpt>
      <trkpt lat="46.35873" lon="6.00712">
        <ele>1438.4</ele>
        <time>2022-05-28T08:59:11.092Z</time>
      </trkpt>
      <trkpt lat="46.35863" lon="6.00709">
        <ele>1439.8</ele>
        <time>2022-05-28T08:59:20.435Z</time>
      </trkpt>
      <trkpt lat="46.35853" lon="6.00712">
        <ele>1440.4</ele>
        <time>2022-05-28T08:59:30.000Z</time>
      </trkpt>
      <trkpt lat="46.35844" lon="6.00717">
        <ele>1441.1</ele>
        <time>2022-05-28T08:59:39.572Z</time>
      </trkpt>
      <trkpt lat="46.35837" lon="6.00727">
        <ele>1442.6</ele>
        <time>2022-05-28T08:59:49.253Z</time>
      </trkpt>
      <trkpt lat="46.35833" lon="6.0074">
        <ele>1444.7</ele>
        <time>2022-05-28T08:59:58.313Z</time>
      </trkpt>
      <trkpt lat="46.35829" lon="6.00751">
        <ele>1446.8</ele>
        <time>2022-05-28T09:00:07.316Z</time>
      </trkpt>
      <trkpt lat="46.35825" lon="6.00758">
        <ele>1448.6</ele>
        <time>2022-05-28T09:00:16.513Z</time>
      </trkpt>
      <trkpt lat="46.35818" lon="6.00765">
        <ele>1450</ele>
        <time>2022-05-28T09:00:26.013Z</time>
      </trkpt>
      <trkpt lat="46.35816" lon="6.00779">
        <ele>1451.2</ele>
        <time>2022-05-28T09:00:35.557Z</time>
      </trkpt>
      <trkpt lat="46.35813" lon="6.0079">
        <ele>1453.1</ele>
        <time>2022-05-28T09:00:44.592Z</time>
      </trkpt>
      <trkpt lat="46.35803" lon="6.00801">
        <ele>1455.2</ele>
        <time>2022-05-28T09:00:54.272Z</time>
      </trkpt>
      <trkpt lat="46.35794" lon="6.00807">
        <ele>1456.5</ele>
        <time>2022-05-28T09:01:04.000Z</time>
      </trkpt>
      <trkpt lat="46.3578" lon="6.00807">
        <ele>1457.2</ele>
        <time>2022-05-28T09:01:13.414Z</time>
      </trkpt>
      <trkpt lat="46.35769" lon="6.008">
        <ele>1458.2</ele>
        <time>2022-05-28T09:01:22.632Z</time>
      </trkpt>
      <trkpt lat="46.35762" lon="6.00793">
        <ele>1458.8</ele>
        <time>2022-05-28T09:01:32.000Z</time>
      </trkpt>
      <trkpt lat="46.35757" lon="6.0078">
        <ele>1458.2</ele>
        <time>2022-05-28T09:01:41.377Z</time>
      </trkpt>
      <trkpt lat="46.35749" lon="6.00772">
        <ele>1458.4</ele>
        <time>2022-05-28T09:01:50.714Z</time>
      </trkpt>
      <trkpt lat="46.35741" lon="6.00764">
        <ele>1458.4</ele>
        <time>2022-05-28T09:01:59.915Z</time>
      </trkpt>
      <trkpt lat="46.35727" lon="6.00759">
        <ele>1459.7</ele>
        <time>2022-05-28T09:02:09.635Z</time>
      </trkpt>
      <trkpt lat="46.35713" lon="6.00745">
        <ele>1459.7</ele>
        <time>2022-05-28T09:02:19.713Z</time>
      </trkpt>
      <trkpt lat="46.35705" lon="6.00735">
        <ele>1459.1</ele>
        <time>2022-05-28T09:02:29.000Z</time>
      </trkpt>
      <trkpt lat="46.35698" lon="6.00725">
        <ele>1458.7</ele>
        <time>2022-05-28T09:02:38.276Z</time>
      </trkpt>
      <trkpt lat="46.35693" lon="6.0071">
        <ele>1458.7</ele>
        <time>2022-05-28T09:02:48.000Z</time>
      </trkpt>
      <trkpt lat="46.35691" lon="6.00697">
        <ele>1458.4</ele>
        <time>2022-05-28T09:02:57.573Z</time>
      </trkpt>
      <trkpt lat="46.35686" lon="6.00681">
        <ele>1459.2</ele>
        <time>2022-05-28T09:03:07.635Z</time>
      </trkpt>
      <trkpt lat="46.35682" lon="6.00664">
        <ele>1458.9</ele>
        <time>2022-05-28T09:03:17.695Z</time>
      </trkpt>
      <trkpt lat="46.35676" lon="6.00649">
        <ele>1460.4</ele>
        <time>2022-05-28T09:03:27.214Z</time>
      </trkpt>
      <trkpt lat="46.35671" lon="6.00631">
        <ele>1461.4</ele>
        <time>2022-05-28T09:03:37.213Z</time>
      </trkpt>
      <trkpt lat="46.35665" lon="6.00612">
        <ele>1460.8</ele>
        <time>2022-05-28T09:03:46.937Z</time>
      </trkpt>
      <trkpt lat="46.35655" lon="6.00599">
        <ele>1462.8</ele>
        <time>2022-05-28T09:03:56.093Z</time>
      </trkpt>
      <trkpt lat="46.35645" lon="6.00586">
        <ele>1463.2</ele>
        <time>2022-05-28T09:04:06.376Z</time>
      </trkpt>
      <trkpt lat="46.35637" lon="6.00573">
        <ele>1462.6</ele>
        <time>2022-05-28T09:04:15.394Z</time>
      </trkpt>
      <trkpt lat="46.3563" lon="6.00562">
        <ele>1462.8</ele>
        <time>2022-05-28T09:04:24.597Z</time>
      </trkpt>
      <trkpt lat="46.35621" lon="6.00552">
        <ele>1463.5</ele>
        <time>2022-05-28T09:04:34.000Z</time>
      </trkpt>
      <trkpt lat="46.35609" lon="6.00542">
        <ele>1463.2</ele>
        <time>2022-05-28T09:04:43.652Z</time>
      </trkpt>
      <trkpt lat="46.35598" lon="6.00537">
        <ele>1462.6</ele>
        <time>2022-05-28T09:04:52.654Z</time>
      </trkpt>
      <trkpt lat="46.35586" lon="6.00536">
        <ele>1463.4</ele>
        <time>2022-05-28T09:05:02.093Z</time>
      </trkpt>
      <trkpt lat="46.35576" lon="6.00545">
        <ele>1464</ele>
        <time>2022-05-28T09:05:11.695Z</time>
      </trkpt>
      <trkpt lat="46.35564" lon="6.00557">
        <ele>1464.5</ele>
        <time>2022-05-28T09:05:21.479Z</time>
      </trkpt>
      <trkpt lat="46.35555" lon="6.00569">
        <ele>1465.3</ele>
        <time>2022-05-28T09:05:31.000Z</time>
      </trkpt>
      <trkpt lat="46.35544" lon="6.00576">
        <ele>1465.9</ele>
        <time>2022-05-28T09:05:40.068Z</time>
      </trkpt>
      <trkpt lat="46.35534" lon="6.00581">
        <ele>1466.1</ele>
        <time>2022-05-28T09:05:49.235Z</time>
      </trkpt>
      <trkpt lat="46.35523" lon="6.00582">
        <ele>1466.3</ele>
        <time>2022-05-28T09:05:58.538Z</time>
      </trkpt>
      <trkpt lat="46.35513" lon="6.00578">
        <ele>1467</ele>
        <time>2022-05-28T09:06:08.000Z</time>
      </trkpt>
      <trkpt lat="46.35504" lon="6.00565">
        <ele>1466.5</ele>
        <time>2022-05-28T09:06:18.000Z</time>
      </trkpt>
      <trkpt lat="46.35508" lon="6.00549">
        <ele>1465.3</ele>
        <time>2022-05-28T09:06:28.000Z</time>
      </trkpt>
      <trkpt lat="46.35513" lon="6.00535">
        <ele>1465.3</ele>
        <time>2022-05-28T09:06:37.736Z</time>
      </trkpt>
      <trkpt lat="46.35511" lon="6.00516">
        <ele>1465.2</ele>
        <time>2022-05-28T09:06:47.753Z</time>
      </trkpt>
      <trkpt lat="46.35501" lon="6.00509">
        <ele>1466.5</ele>
        <time>2022-05-28T09:06:57.000Z</time>
      </trkpt>
      <trkpt lat="46.35488" lon="6.00508">
        <ele>1466.8</ele>
        <time>2022-05-28T09:07:07.000Z</time>
      </trkpt>
      <trkpt lat="46.35475" lon="6.00505">
        <ele>1466.7</ele>
        <time>2022-05-28T09:07:16.553Z</time>
      </trkpt>
      <trkpt lat="46.35464" lon="6.00499">
        <ele>1465.9</ele>
        <time>2022-05-28T09:07:25.735Z</time>
      </trkpt>
      <trkpt lat="46.35452" lon="6.00496">
        <ele>1465.5</ele>
        <time>2022-05-28T09:07:35.535Z</time>
      </trkpt>
      <trkpt lat="46.35439" lon="6.00497">
        <ele>1465.8</ele>
        <time>2022-05-28T09:07:45.652Z</time>
      </trkpt>
      <trkpt lat="46.35428" lon="6.00497">
        <ele>1466.3</ele>
        <time>2022-05-28T09:07:54.712Z</time>
      </trkpt>
      <trkpt lat="46.35418" lon="6.00489">
        <ele>1466.1</ele>
        <time>2022-05-28T09:08:03.734Z</time>
      </trkpt>
      <trkpt lat="46.35409" lon="6.00482">
        <ele>1465.9</ele>
        <time>2022-05-28T09:08:13.000Z</time>
      </trkpt>
      <trkpt lat="46.35399" lon="6.00473">
        <ele>1465.1</ele>
        <time>2022-05-28T09:08:22.273Z</time>
      </trkpt>
      <trkpt lat="46.35388" lon="6.00482">
        <ele>1466.4</ele>
        <time>2022-05-28T09:08:31.532Z</time>
      </trkpt>
      <trkpt lat="46.35376" lon="6.00488">
        <ele>1466.5</ele>
        <time>2022-05-28T09:08:40.595Z</time>
      </trkpt>
      <trkpt lat="46.35366" lon="6.00493">
        <ele>1466.6</ele>
        <time>2022-05-28T09:08:51.000Z</time>
      </trkpt>
      <trkpt lat="46.35352" lon="6.00504">
        <ele>1467.2</ele>
        <time>2022-05-28T09:09:01.000Z</time>
      </trkpt>
      <trkpt lat="46.35338" lon="6.00514">
        <ele>1468.4</ele>
        <time>2022-05-28T09:09:10.276Z</time>
      </trkpt>
      <trkpt lat="46.35331" lon="6.00497">
        <ele>1466.2</ele>
        <time>2022-05-28T09:09:20.000Z</time>
      </trkpt>
      <trkpt lat="46.35325" lon="6.00484">
        <ele>1466.3</ele>
        <time>2022-05-28T09:09:29.452Z</time>
      </trkpt>
      <trkpt lat="46.35321" lon="6.00471">
        <ele>1466.1</ele>
        <time>2022-05-28T09:09:38.514Z</time>
      </trkpt>
      <trkpt lat="46.35315" lon="6.00457">
        <ele>1466.3</ele>
        <time>2022-05-28T09:09:48.614Z</time>
      </trkpt>
      <trkpt lat="46.35306" lon="6.00444">
        <ele>1466.9</ele>
        <time>2022-05-28T09:09:58.000Z</time>
      </trkpt>
      <trkpt lat="46.35295" lon="6.00447">
        <ele>1467.5</ele>
        <time>2022-05-28T09:10:07.194Z</time>
      </trkpt>
      <trkpt lat="46.35285" lon="6.00458">
        <ele>1468</ele>
        <time>2022-05-28T09:10:17.000Z</time>
      </trkpt>
      <trkpt lat="46.35274" lon="6.00462">
        <ele>1468.3</ele>
        <time>2022-05-28T09:10:26.195Z</time>
      </trkpt>
      <trkpt lat="46.35262" lon="6.00465">
        <ele>1469.3</ele>
        <time>2022-05-28T09:10:35.637Z</time>
      </trkpt>
      <trkpt lat="46.35253" lon="6.00468">
        <ele>1469.9</ele>
        <time>2022-05-28T09:10:44.994Z</time>
      </trkpt>
      <trkpt lat="46.35244" lon="6.00464">
        <ele>1470.6</ele>
        <time>2022-05-28T09:10:54.046Z</time>
      </trkpt>
      <trkpt lat="46.35235" lon="6.00471">
        <ele>1471.1</ele>
        <time>2022-05-28T09:11:04.000Z</time>
      </trkpt>
      <trkpt lat="46.35224" lon="6.00476">
        <ele>1472</ele>
        <time>2022-05-28T09:11:14.000Z</time>
      </trkpt>
      <trkpt lat="46.35214" lon="6.00485">
        <ele>1474</ele>
        <time>2022-05-28T09:11:24.000Z</time>
      </trkpt>
      <trkpt lat="46.35206" lon="6.00488">
        <ele>1475.3</ele>
        <time>2022-05-28T09:11:33.594Z</time>
      </trkpt>
      <trkpt lat="46.35198" lon="6.00491">
        <ele>1476.5</ele>
        <time>2022-05-28T09:11:43.000Z</time>
      </trkpt>
      <trkpt lat="46.3519" lon="6.00498">
        <ele>1477</ele>
        <time>2022-05-28T09:11:52.213Z</time>
      </trkpt>
      <trkpt lat="46.35182" lon="6.00502">
        <ele>1478.2</ele>
        <time>2022-05-28T09:12:01.693Z</time>
      </trkpt>
      <trkpt lat="46.35173" lon="6.00495">
        <ele>1480.5</ele>
        <time>2022-05-28T09:12:10.694Z</time>
      </trkpt>
      <trkpt lat="46.35165" lon="6.0049">
        <ele>1482.6</ele>
        <time>2022-05-28T09:12:20.000Z</time>
      </trkpt>
      <trkpt lat="46.35158" lon="6.00497">
        <ele>1482.4</ele>
        <time>2022-05-28T09:12:29.594Z</time>
      </trkpt>
      <trkpt lat="46.35149" lon="6.00499">
        <ele>1483</ele>
        <time>2022-05-28T09:12:39.312Z</time>
      </trkpt>
      <trkpt lat="46.3514" lon="6.00501">
        <ele>1483.8</ele>
        <time>2022-05-28T09:12:48.437Z</time>
      </trkpt>
      <trkpt lat="46.3513" lon="6.00506">
        <ele>1484.9</ele>
        <time>2022-05-28T09:12:57.493Z</time>
      </trkpt>
      <trkpt lat="46.3512" lon="6.00508">
        <ele>1486.3</ele>
        <time>2022-05-28T09:13:06.754Z</time>
      </trkpt>
      <trkpt lat="46.35114" lon="6.005">
        <ele>1487.6</ele>
        <time>2022-05-28T09:13:16.654Z</time>
      </trkpt>
      <trkpt lat="46.35105" lon="6.00496">
        <ele>1489.1</ele>
        <time>2022-05-28T09:13:25.731Z</time>
      </trkpt>
      <trkpt lat="46.35095" lon="6.0049">
        <ele>1490.3</ele>
        <time>2022-05-28T09:13:35.440Z</time>
      </trkpt>
      <trkpt lat="46.35087" lon="6.00479">
        <ele>1491</ele>
        <time>2022-05-28T09:13:45.000Z</time>
      </trkpt>
      <trkpt lat="46.35078" lon="6.00477">
        <ele>1492.3</ele>
        <time>2022-05-28T09:13:54.456Z</time>
      </trkpt>
      <trkpt lat="46.35072" lon="6.00479">
        <ele>1493.6</ele>
        <time>2022-05-28T09:14:03.673Z</time>
      </trkpt>
      <trkpt lat="46.35062" lon="6.00479">
        <ele>1496.1</ele>
        <time>2022-05-28T09:14:14.000Z</time>
      </trkpt>
      <trkpt lat="46.35053" lon="6.00477">
        <ele>1498.7</ele>
        <time>2022-05-28T09:14:23.373Z</time>
      </trkpt>
      <trkpt lat="46.35046" lon="6.00477">
        <ele>1501.1</ele>
        <time>2022-05-28T09:14:33.000Z</time>
      </trkpt>
      <trkpt lat="46.35041" lon="6.00477">
        <ele>1503.1</ele>
        <time>2022-05-28T09:14:42.713Z</time>
      </trkpt>
      <trkpt lat="46.35035" lon="6.00475">
        <ele>1505.4</ele>
        <time>2022-05-28T09:14:52.190Z</time>
      </trkpt>
      <trkpt lat="46.35027" lon="6.00468">
        <ele>1508</ele>
        <time>2022-05-28T09:15:01.213Z</time>
      </trkpt>
      <trkpt lat="46.35022" lon="6.00466">
        <ele>1509.1</ele>
        <time>2022-05-28T09:15:10.234Z</time>
      </trkpt>
      <trkpt lat="46.35014" lon="6.00459">
        <ele>1511.1</ele>
        <time>2022-05-28T09:15:20.000Z</time>
      </trkpt>
      <trkpt lat="46.35008" lon="6.00449">
        <ele>1512</ele>
        <time>2022-05-28T09:15:29.333Z</time>
      </trkpt>
      <trkpt lat="46.35003" lon="6.00444">
        <ele>1513.2</ele>
        <time>2022-05-28T09:15:39.000Z</time>
      </trkpt>
      <trkpt lat="46.35" lon="6.00436">
        <ele>1514.3</ele>
        <time>2022-05-28T09:15:48.396Z</time>
      </trkpt>
      <trkpt lat="46.34993" lon="6.00429">
        <ele>1516.8</ele>
        <time>2022-05-28T09:15:58.000Z</time>
      </trkpt>
      <trkpt lat="46.34986" lon="6.00426">
        <ele>1518.7</ele>
        <time>2022-05-28T09:16:08.000Z</time>
      </trkpt>
      <trkpt lat="46.34981" lon="6.00423">
        <ele>1520.3</ele>
        <time>2022-05-28T09:16:17.376Z</time>
      </trkpt>
      <trkpt lat="46.34977" lon="6.00423">
        <ele>1521.5</ele>
        <time>2022-05-28T09:16:27.000Z</time>
      </trkpt>
      <trkpt lat="46.34964" lon="6.00421">
        <ele>1524.8</ele>
        <time>2022-05-28T09:16:37.000Z</time>
      </trkpt>
      <trkpt lat="46.34957" lon="6.00421">
        <ele>1526.2</ele>
        <time>2022-05-28T09:16:47.000Z</time>
      </trkpt>
      <trkpt lat="46.34949" lon="6.00421">
        <ele>1528.1</ele>
        <time>2022-05-28T09:16:56.558Z</time>
      </trkpt>
      <trkpt lat="46.34943" lon="6.00416">
        <ele>1529.9</ele>
        <time>2022-05-28T09:17:06.000Z</time>
      </trkpt>
      <trkpt lat="46.34941" lon="6.00408">
        <ele>1531.3</ele>
        <time>2022-05-28T09:17:15.276Z</time>
      </trkpt>
      <trkpt lat="46.34934" lon="6.00403">
        <ele>1534</ele>
        <time>2022-05-28T09:17:25.000Z</time>
      </trkpt>
      <trkpt lat="46.34927" lon="6.00399">
        <ele>1537</ele>
        <time>2022-05-28T09:17:35.000Z</time>
      </trkpt>
      <trkpt lat="46.3492" lon="6.00395">
        <ele>1539.3</ele>
        <time>2022-05-28T09:17:44.015Z</time>
      </trkpt>
      <trkpt lat="46.34913" lon="6.00392">
        <ele>1540.7</ele>
        <time>2022-05-28T09:17:54.000Z</time>
      </trkpt>
      <trkpt lat="46.34903" lon="6.00392">
        <ele>1542.2</ele>
        <time>2022-05-28T09:18:03.493Z</time>
      </trkpt>
      <trkpt lat="46.34894" lon="6.00394">
        <ele>1543.6</ele>
        <time>2022-05-28T09:18:13.000Z</time>
      </trkpt>
      <trkpt lat="46.34885" lon="6.00395">
        <ele>1544.7</ele>
        <time>2022-05-28T09:18:22.415Z</time>
      </trkpt>
      <trkpt lat="46.34887" lon="6.00408">
        <ele>1545.7</ele>
        <time>2022-05-28T09:18:32.000Z</time>
      </trkpt>
      <trkpt lat="46.34882" lon="6.00419">
        <ele>1547.4</ele>
        <time>2022-05-28T09:18:41.334Z</time>
      </trkpt>
      <trkpt lat="46.34873" lon="6.00425">
        <ele>1549.6</ele>
        <time>2022-05-28T09:18:50.694Z</time>
      </trkpt>
      <trkpt lat="46.34867" lon="6.00433">
        <ele>1552</ele>
        <time>2022-05-28T09:18:59.874Z</time>
      </trkpt>
      <trkpt lat="46.34861" lon="6.00439">
        <ele>1554.2</ele>
        <time>2022-05-28T09:19:09.433Z</time>
      </trkpt>
      <trkpt lat="46.34858" lon="6.00449">
        <ele>1556</ele>
        <time>2022-05-28T09:19:18.453Z</time>
      </trkpt>
      <trkpt lat="46.34856" lon="6.00466">
        <ele>1558.4</ele>
        <time>2022-05-28T09:19:27.716Z</time>
      </trkpt>
      <trkpt lat="46.34859" lon="6.00478">
        <ele>1559.5</ele>
        <time>2022-05-28T09:19:37.000Z</time>
      </trkpt>
      <trkpt lat="46.34858" lon="6.0049">
        <ele>1562</ele>
        <time>2022-05-28T09:19:47.000Z</time>
      </trkpt>
      <trkpt lat="46.34859" lon="6.00502">
        <ele>1564.1</ele>
        <time>2022-05-28T09:19:57.000Z</time>
      </trkpt>
      <trkpt lat="46.34859" lon="6.00514">
        <ele>1566.6</ele>
        <time>2022-05-28T09:20:06.274Z</time>
      </trkpt>
      <trkpt lat="46.34857" lon="6.00522">
        <ele>1569.1</ele>
        <time>2022-05-28T09:20:15.594Z</time>
      </trkpt>
      <trkpt lat="46.34852" lon="6.00534">
        <ele>1572.2</ele>
        <time>2022-05-28T09:20:25.159Z</time>
      </trkpt>
      <trkpt lat="46.34846" lon="6.00544">
        <ele>1575.5</ele>
        <time>2022-05-28T09:20:35.000Z</time>
      </trkpt>
      <trkpt lat="46.34841" lon="6.0055">
        <ele>1577.9</ele>
        <time>2022-05-28T09:20:44.275Z</time>
      </trkpt>
      <trkpt lat="46.34834" lon="6.00555">
        <ele>1581.7</ele>
        <time>2022-05-28T09:20:53.659Z</time>
      </trkpt>
      <trkpt lat="46.34836" lon="6.00565">
        <ele>1581.7</ele>
        <time>2022-05-28T09:21:03.255Z</time>
      </trkpt>
      <trkpt lat="46.34835" lon="6.00577">
        <ele>1583.6</ele>
        <time>2022-05-28T09:21:12.578Z</time>
      </trkpt>
      <trkpt lat="46.34832" lon="6.00585">
        <ele>1585.5</ele>
        <time>2022-05-28T09:21:22.000Z</time>
      </trkpt>
      <trkpt lat="46.34827" lon="6.00599">
        <ele>1587</ele>
        <time>2022-05-28T09:21:31.351Z</time>
      </trkpt>
      <trkpt lat="46.34823" lon="6.00607">
        <ele>1588.5</ele>
        <time>2022-05-28T09:21:41.000Z</time>
      </trkpt>
      <trkpt lat="46.34816" lon="6.00616">
        <ele>1590.6</ele>
        <time>2022-05-28T09:21:51.000Z</time>
      </trkpt>
      <trkpt lat="46.34803" lon="6.00618">
        <ele>1592.9</ele>
        <time>2022-05-28T09:22:01.000Z</time>
      </trkpt>
      <trkpt lat="46.34798" lon="6.00625">
        <ele>1590.6</ele>
        <time>2022-05-28T09:22:11.000Z</time>
      </trkpt>
      <trkpt lat="46.34799" lon="6.00628">
        <ele>1590.9</ele>
        <time>2022-05-28T09:22:21.000Z</time>
      </trkpt>
      <trkpt lat="46.34798" lon="6.00627">
        <ele>1590.3</ele>
        <time>2022-05-28T09:23:00.000Z</time>
      </trkpt>
      <trkpt lat="46.34799" lon="6.00626">
        <ele>1590.9</ele>
        <time>2022-05-28T09:23:10.000Z</time>
      </trkpt>
      <trkpt lat="46.34799" lon="6.00628">
        <ele>1590.7</ele>
        <time>2022-05-28T09:23:54.000Z</time>
      </trkpt>
      <trkpt lat="46.34799" lon="6.00625">
        <ele>1591</ele>
        <time>2022-05-28T09:24:44.000Z</time>
      </trkpt>
      <trkpt lat="46.34799" lon="6.00622">
        <ele>1591.1</ele>
        <time>2022-05-28T09:24:54.000Z</time>
      </trkpt>
      <trkpt lat="46.34798" lon="6.00623">
        <ele>1590.7</ele>
        <time>2022-05-28T09:26:33.414Z</time>
      </trkpt>
      <trkpt lat="46.34788" lon="6.0061">
        <ele>1591.7</ele>
        <time>2022-05-28T09:26:42.516Z</time>
      </trkpt>
      <trkpt lat="46.34778" lon="6.00604">
        <ele>1591.5</ele>
        <time>2022-05-28T09:26:51.594Z</time>
      </trkpt>
      <trkpt lat="46.34771" lon="6.00596">
        <ele>1590.7</ele>
        <time>2022-05-28T09:27:00.674Z</time>
      </trkpt>
      <trkpt lat="46.34759" lon="6.00596">
        <ele>1588.6</ele>
        <time>2022-05-28T09:27:10.574Z</time>
      </trkpt>
      <trkpt lat="46.34749" lon="6.00599">
        <ele>1586.2</ele>
        <time>2022-05-28T09:27:20.000Z</time>
      </trkpt>
      <trkpt lat="46.34739" lon="6.00595">
        <ele>1586.6</ele>
        <time>2022-05-28T09:27:29.318Z</time>
      </trkpt>
      <trkpt lat="46.34728" lon="6.00586">
        <ele>1587.8</ele>
        <time>2022-05-28T09:27:38.595Z</time>
      </trkpt>
      <trkpt lat="46.3472" lon="6.00576">
        <ele>1588.3</ele>
        <time>2022-05-28T09:27:48.112Z</time>
      </trkpt>
      <trkpt lat="46.34713" lon="6.00574">
        <ele>1589.8</ele>
        <time>2022-05-28T09:27:57.356Z</time>
      </trkpt>
      <trkpt lat="46.34708" lon="6.0058">
        <ele>1591.4</ele>
        <time>2022-05-28T09:28:06.533Z</time>
      </trkpt>
      <trkpt lat="46.34701" lon="6.00575">
        <ele>1593</ele>
        <time>2022-05-28T09:28:16.114Z</time>
      </trkpt>
      <trkpt lat="46.34691" lon="6.00573">
        <ele>1593.7</ele>
        <time>2022-05-28T09:28:25.316Z</time>
      </trkpt>
      <trkpt lat="46.34684" lon="6.00569">
        <ele>1592.9</ele>
        <time>2022-05-28T09:28:35.000Z</time>
      </trkpt>
      <trkpt lat="46.34679" lon="6.0057">
        <ele>1592.3</ele>
        <time>2022-05-28T09:28:44.533Z</time>
      </trkpt>
      <trkpt lat="46.34668" lon="6.00563">
        <ele>1592.9</ele>
        <time>2022-05-28T09:28:54.006Z</time>
      </trkpt>
      <trkpt lat="46.3466" lon="6.00556">
        <ele>1593.8</ele>
        <time>2022-05-28T09:29:03.294Z</time>
      </trkpt>
      <trkpt lat="46.3465" lon="6.00548">
        <ele>1592.2</ele>
        <time>2022-05-28T09:29:12.733Z</time>
      </trkpt>
      <trkpt lat="46.34639" lon="6.00544">
        <ele>1591.4</ele>
        <time>2022-05-28T09:29:23.000Z</time>
      </trkpt>
      <trkpt lat="46.34631" lon="6.0053">
        <ele>1590.8</ele>
        <time>2022-05-28T09:29:33.000Z</time>
      </trkpt>
      <trkpt lat="46.34623" lon="6.00521">
        <ele>1590.1</ele>
        <time>2022-05-28T09:29:42.016Z</time>
      </trkpt>
      <trkpt lat="46.34613" lon="6.00511">
        <ele>1590.2</ele>
        <time>2022-05-28T09:29:52.000Z</time>
      </trkpt>
      <trkpt lat="46.34604" lon="6.00505">
        <ele>1591.5</ele>
        <time>2022-05-28T09:30:01.395Z</time>
      </trkpt>
      <trkpt lat="46.34595" lon="6.00501">
        <ele>1593.2</ele>
        <time>2022-05-28T09:30:11.000Z</time>
      </trkpt>
      <trkpt lat="46.34586" lon="6.00498">
        <ele>1594.3</ele>
        <time>2022-05-28T09:30:20.376Z</time>
      </trkpt>
      <trkpt lat="46.34576" lon="6.00499">
        <ele>1594.9</ele>
        <time>2022-05-28T09:30:29.555Z</time>
      </trkpt>
      <trkpt lat="46.34564" lon="6.00498">
        <ele>1594.8</ele>
        <time>2022-05-28T09:30:38.993Z</time>
      </trkpt>
      <trkpt lat="46.34554" lon="6.00499">
        <ele>1595.1</ele>
        <time>2022-05-28T09:30:48.455Z</time>
      </trkpt>
      <trkpt lat="46.34545" lon="6.00497">
        <ele>1595.7</ele>
        <time>2022-05-28T09:30:58.000Z</time>
      </trkpt>
      <trkpt lat="46.34536" lon="6.00491">
        <ele>1596.5</ele>
        <time>2022-05-28T09:31:07.251Z</time>
      </trkpt>
      <trkpt lat="46.34526" lon="6.00494">
        <ele>1597.4</ele>
        <time>2022-05-28T09:31:16.636Z</time>
      </trkpt>
      <trkpt lat="46.34517" lon="6.00497">
        <ele>1598.3</ele>
        <time>2022-05-28T09:31:26.000Z</time>
      </trkpt>
      <trkpt lat="46.34507" lon="6.00501">
        <ele>1598.8</ele>
        <time>2022-05-28T09:31:36.000Z</time>
      </trkpt>
      <trkpt lat="46.34498" lon="6.00499">
        <ele>1600.3</ele>
        <time>2022-05-28T09:31:45.075Z</time>
      </trkpt>
      <trkpt lat="46.34489" lon="6.00493">
        <ele>1601.5</ele>
        <time>2022-05-28T09:31:54.254Z</time>
      </trkpt>
      <trkpt lat="46.3448" lon="6.00489">
        <ele>1602.8</ele>
        <time>2022-05-28T09:32:03.613Z</time>
      </trkpt>
      <trkpt lat="46.3447" lon="6.00492">
        <ele>1604.1</ele>
        <time>2022-05-28T09:32:13.000Z</time>
      </trkpt>
      <trkpt lat="46.34462" lon="6.00495">
        <ele>1605.9</ele>
        <time>2022-05-28T09:32:22.195Z</time>
      </trkpt>
      <trkpt lat="46.34454" lon="6.00502">
        <ele>1607</ele>
        <time>2022-05-28T09:32:31.296Z</time>
      </trkpt>
      <trkpt lat="46.34441" lon="6.00502">
        <ele>1608.8</ele>
        <time>2022-05-28T09:32:41.000Z</time>
      </trkpt>
      <trkpt lat="46.34434" lon="6.00499">
        <ele>1608.9</ele>
        <time>2022-05-28T09:32:50.114Z</time>
      </trkpt>
      <trkpt lat="46.34432" lon="6.0049">
        <ele>1609.3</ele>
        <time>2022-05-28T09:32:59.373Z</time>
      </trkpt>
      <trkpt lat="46.34433" lon="6.00482">
        <ele>1609.9</ele>
        <time>2022-05-28T09:33:08.478Z</time>
      </trkpt>
      <trkpt lat="46.34434" lon="6.0048">
        <ele>1610.1</ele>
        <time>2022-05-28T09:33:18.000Z</time>
      </trkpt>
      <trkpt lat="46.34435" lon="6.00481">
        <ele>1610.1</ele>
        <time>2022-05-28T09:44:51.000Z</time>
      </trkpt>
      <trkpt lat="46.34436" lon="6.00481">
        <ele>1610.2</ele>
        <time>2022-05-28T09:48:29.000Z</time>
      </trkpt>
      <trkpt lat="46.34437" lon="6.00482">
        <ele>1610.2</ele>
        <time>2022-05-28T09:49:03.000Z</time>
      </trkpt>
      <trkpt lat="46.34436" lon="6.00482">
        <ele>1610.1</ele>
        <time>2022-05-28T09:49:13.000Z</time>
      </trkpt>
      <trkpt lat="46.34433" lon="6.00479">
        <ele>1610.1</ele>
        <time>2022-05-28T09:51:23.000Z</time>
      </trkpt>
      <trkpt lat="46.34432" lon="6.00476">
        <ele>1610.3</ele>
        <time>2022-05-28T09:51:33.000Z</time>
      </trkpt>
      <trkpt lat="46.3443" lon="6.00476">
        <ele>1610.2</ele>
        <time>2022-05-28T09:59:19.000Z</time>
      </trkpt>
      <trkpt lat="46.34434" lon="6.00479">
        <ele>1610.2</ele>
        <time>2022-05-28T09:59:29.000Z</time>
      </trkpt>
      <trkpt lat="46.34435" lon="6.00477">
        <ele>1610.4</ele>
        <time>2022-05-28T09:59:39.000Z</time>
      </trkpt>
      <trkpt lat="46.34434" lon="6.00482">
        <ele>1610</ele>
        <time>2022-05-28T09:59:49.000Z</time>
      </trkpt>
      <trkpt lat="46.34434" lon="6.00481">
        <ele>1610.1</ele>
        <time>2022-05-28T09:59:59.000Z</time>
      </trkpt>
      <trkpt lat="46.34435" lon="6.00479">
        <ele>1610.2</ele>
        <time>2022-05-28T10:00:14.000Z</time>
      </trkpt>
      <trkpt lat="46.34437" lon="6.00476">
        <ele>1610.5</ele>
        <time>2022-05-28T10:00:28.000Z</time>
      </trkpt>
      <trkpt lat="46.34438" lon="6.00475">
        <ele>1610.6</ele>
        <time>2022-05-28T10:00:38.000Z</time>
      </trkpt>
      <trkpt lat="46.34437" lon="6.00479">
        <ele>1610.4</ele>
        <time>2022-05-28T10:00:48.000Z</time>
      </trkpt>
      <trkpt lat="46.34435" lon="6.00484">
        <ele>1610</ele>
        <time>2022-05-28T10:00:58.000Z</time>
      </trkpt>
      <trkpt lat="46.34437" lon="6.00485">
        <ele>1610.1</ele>
        <time>2022-05-28T10:01:08.000Z</time>
      </trkpt>
      <trkpt lat="46.34437" lon="6.00482">
        <ele>1610.2</ele>
        <time>2022-05-28T10:01:18.000Z</time>
      </trkpt>
      <trkpt lat="46.34438" lon="6.0048">
        <ele>1610.4</ele>
        <time>2022-05-28T10:01:33.000Z</time>
      </trkpt>
      <trkpt lat="46.34437" lon="6.00473">
        <ele>1610.7</ele>
        <time>2022-05-28T10:01:43.000Z</time>
      </trkpt>
      <trkpt lat="46.34436" lon="6.00476">
        <ele>1610.5</ele>
        <time>2022-05-28T10:01:53.000Z</time>
      </trkpt>
      <trkpt lat="46.34437" lon="6.00475">
        <ele>1610.6</ele>
        <time>2022-05-28T10:02:40.000Z</time>
      </trkpt>
      <trkpt lat="46.34439" lon="6.00475">
        <ele>1610.7</ele>
        <time>2022-05-28T10:02:50.000Z</time>
      </trkpt>
      <trkpt lat="46.34439" lon="6.00473">
        <ele>1610.8</ele>
        <time>2022-05-28T10:03:00.000Z</time>
      </trkpt>
      <trkpt lat="46.34438" lon="6.00479">
        <ele>1610.4</ele>
        <time>2022-05-28T10:04:26.000Z</time>
      </trkpt>
      <trkpt lat="46.34437" lon="6.00483">
        <ele>1610.2</ele>
        <time>2022-05-28T10:04:36.000Z</time>
      </trkpt>
      <trkpt lat="46.34439" lon="6.00478">
        <ele>1610.5</ele>
        <time>2022-05-28T10:04:46.000Z</time>
      </trkpt>
      <trkpt lat="46.34441" lon="6.00482">
        <ele>1610.4</ele>
        <time>2022-05-28T10:04:56.000Z</time>
      </trkpt>
      <trkpt lat="46.34438" lon="6.00482">
        <ele>1610.3</ele>
        <time>2022-05-28T10:05:06.000Z</time>
      </trkpt>
      <trkpt lat="46.34437" lon="6.00481">
        <ele>1610.3</ele>
        <time>2022-05-28T10:05:16.000Z</time>
      </trkpt>
      <trkpt lat="46.34437" lon="6.00479">
        <ele>1610.3</ele>
        <time>2022-05-28T10:06:01.000Z</time>
      </trkpt>
      <trkpt lat="46.34437" lon="6.0048">
        <ele>1610.3</ele>
        <time>2022-05-28T10:06:21.000Z</time>
      </trkpt>
      <trkpt lat="46.34436" lon="6.00482">
        <ele>1610.1</ele>
        <time>2022-05-28T10:06:31.000Z</time>
      </trkpt>
      <trkpt lat="46.34436" lon="6.0048">
        <ele>1610.3</ele>
        <time>2022-05-28T10:06:41.000Z</time>
      </trkpt>
      <trkpt lat="46.34435" lon="6.00476">
        <ele>1610.4</ele>
        <time>2022-05-28T10:06:51.000Z</time>
      </trkpt>
      <trkpt lat="46.34437" lon="6.00475">
        <ele>1610.5</ele>
        <time>2022-05-28T10:07:01.000Z</time>
      </trkpt>
      <trkpt lat="46.34436" lon="6.00477">
        <ele>1610.4</ele>
        <time>2022-05-28T10:07:12.000Z</time>
      </trkpt>
      <trkpt lat="46.34435" lon="6.00481">
        <ele>1610.2</ele>
        <time>2022-05-28T10:07:37.000Z</time>
      </trkpt>
      <trkpt lat="46.34436" lon="6.00477">
        <ele>1610.4</ele>
        <time>2022-05-28T10:08:16.000Z</time>
      </trkpt>
      <trkpt lat="46.34438" lon="6.00473">
        <ele>1610.7</ele>
        <time>2022-05-28T10:08:26.000Z</time>
      </trkpt>
      <trkpt lat="46.34437" lon="6.00476">
        <ele>1610.5</ele>
        <time>2022-05-28T10:09:00.000Z</time>
      </trkpt>
      <trkpt lat="46.34435" lon="6.0048">
        <ele>1610.2</ele>
        <time>2022-05-28T10:09:10.000Z</time>
      </trkpt>
      <trkpt lat="46.34436" lon="6.00479">
        <ele>1610.3</ele>
        <time>2022-05-28T10:10:26.000Z</time>
      </trkpt>
      <trkpt lat="46.34435" lon="6.00483">
        <ele>1610</ele>
        <time>2022-05-28T10:10:36.000Z</time>
      </trkpt>
      <trkpt lat="46.34437" lon="6.00483">
        <ele>1610.1</ele>
        <time>2022-05-28T10:10:54.000Z</time>
      </trkpt>
      <trkpt lat="46.34439" lon="6.00479">
        <ele>1610.4</ele>
        <time>2022-05-28T10:11:04.000Z</time>
      </trkpt>
      <trkpt lat="46.34436" lon="6.00483">
        <ele>1610.1</ele>
        <time>2022-05-28T10:11:14.000Z</time>
      </trkpt>
      <trkpt lat="46.3444" lon="6.00487">
        <ele>1610.2</ele>
        <time>2022-05-28T10:11:24.000Z</time>
      </trkpt>
      <trkpt lat="46.34438" lon="6.00484">
        <ele>1610.1</ele>
        <time>2022-05-28T10:11:34.000Z</time>
      </trkpt>
      <trkpt lat="46.34436" lon="6.00485">
        <ele>1610</ele>
        <time>2022-05-28T10:11:44.000Z</time>
      </trkpt>
      <trkpt lat="46.3443" lon="6.00475">
        <ele>1610.3</ele>
        <time>2022-05-28T10:11:54.000Z</time>
      </trkpt>
      <trkpt lat="46.34428" lon="6.00483">
        <ele>1609.5</ele>
        <time>2022-05-28T10:12:04.000Z</time>
      </trkpt>
      <trkpt lat="46.34432" lon="6.00477">
        <ele>1610.2</ele>
        <time>2022-05-28T10:12:14.000Z</time>
      </trkpt>
      <trkpt lat="46.34435" lon="6.00479">
        <ele>1610.2</ele>
        <time>2022-05-28T10:12:24.000Z</time>
      </trkpt>
      <trkpt lat="46.34436" lon="6.00477">
        <ele>1610.4</ele>
        <time>2022-05-28T10:12:34.000Z</time>
      </trkpt>
      <trkpt lat="46.34434" lon="6.0048">
        <ele>1610.1</ele>
        <time>2022-05-28T10:12:44.000Z</time>
      </trkpt>
      <trkpt lat="46.34436" lon="6.00478">
        <ele>1610.3</ele>
        <time>2022-05-28T10:12:54.000Z</time>
      </trkpt>
      <trkpt lat="46.34435" lon="6.0048">
        <ele>1610.2</ele>
        <time>2022-05-28T10:14:02.000Z</time>
      </trkpt>
      <trkpt lat="46.34434" lon="6.00481">
        <ele>1610.1</ele>
        <time>2022-05-28T10:14:12.000Z</time>
      </trkpt>
      <trkpt lat="46.34436" lon="6.00481">
        <ele>1610.2</ele>
        <time>2022-05-28T10:18:31.000Z</time>
      </trkpt>
      <trkpt lat="46.34437" lon="6.0048">
        <ele>1610.3</ele>
        <time>2022-05-28T10:18:41.000Z</time>
      </trkpt>
      <trkpt lat="46.34437" lon="6.00478">
        <ele>1610.4</ele>
        <time>2022-05-28T10:18:51.000Z</time>
      </trkpt>
      <trkpt lat="46.34438" lon="6.0048">
        <ele>1610.3</ele>
        <time>2022-05-28T10:19:01.000Z</time>
      </trkpt>
      <trkpt lat="46.34437" lon="6.00482">
        <ele>1610.2</ele>
        <time>2022-05-28T10:19:20.000Z</time>
      </trkpt>
      <trkpt lat="46.34437" lon="6.00484">
        <ele>1610.1</ele>
        <time>2022-05-28T10:19:30.000Z</time>
      </trkpt>
      <trkpt lat="46.34437" lon="6.00482">
        <ele>1610.1</ele>
        <time>2022-05-28T10:19:40.000Z</time>
      </trkpt>
      <trkpt lat="46.34436" lon="6.00481">
        <ele>1610.2</ele>
        <time>2022-05-28T10:20:10.000Z</time>
      </trkpt>
      <trkpt lat="46.34438" lon="6.00478">
        <ele>1610.4</ele>
        <time>2022-05-28T10:20:20.000Z</time>
      </trkpt>
      <trkpt lat="46.34434" lon="6.00478">
        <ele>1610.3</ele>
        <time>2022-05-28T10:20:30.000Z</time>
      </trkpt>
      <trkpt lat="46.34431" lon="6.0048">
        <ele>1610</ele>
        <time>2022-05-28T10:20:40.000Z</time>
      </trkpt>
      <trkpt lat="46.34436" lon="6.00483">
        <ele>1610.1</ele>
        <time>2022-05-28T10:20:50.000Z</time>
      </trkpt>
      <trkpt lat="46.34435" lon="6.00482">
        <ele>1610.1</ele>
        <time>2022-05-28T10:21:01.000Z</time>
      </trkpt>
      <trkpt lat="46.3443" lon="6.00487">
        <ele>1609.4</ele>
        <time>2022-05-28T10:21:11.000Z</time>
      </trkpt>
      <trkpt lat="46.34423" lon="6.00499">
        <ele>1607.8</ele>
        <time>2022-05-28T10:21:20.642Z</time>
      </trkpt>
      <trkpt lat="46.34415" lon="6.00503">
        <ele>1604.6</ele>
        <time>2022-05-28T10:21:30.000Z</time>
      </trkpt>
      <trkpt lat="46.34416" lon="6.00508">
        <ele>1601</ele>
        <time>2022-05-28T10:21:40.000Z</time>
      </trkpt>
      <trkpt lat="46.34415" lon="6.00512">
        <ele>1597.6</ele>
        <time>2022-05-28T10:21:50.000Z</time>
      </trkpt>
      <trkpt lat="46.34406" lon="6.00506">
        <ele>1599</ele>
        <time>2022-05-28T10:22:00.000Z</time>
      </trkpt>
      <trkpt lat="46.34405" lon="6.00505">
        <ele>1599.4</ele>
        <time>2022-05-28T10:22:10.000Z</time>
      </trkpt>
      <trkpt lat="46.34409" lon="6.00505">
        <ele>1601.1</ele>
        <time>2022-05-28T10:22:34.000Z</time>
      </trkpt>
      <trkpt lat="46.34415" lon="6.00504">
        <ele>1603.4</ele>
        <time>2022-05-28T10:22:44.000Z</time>
      </trkpt>
      <trkpt lat="46.34415" lon="6.00506">
        <ele>1602.3</ele>
        <time>2022-05-28T10:23:39.000Z</time>
      </trkpt>
      <trkpt lat="46.34417" lon="6.00506">
        <ele>1602.4</ele>
        <time>2022-05-28T10:23:49.000Z</time>
      </trkpt>
      <trkpt lat="46.34419" lon="6.00505">
        <ele>1604.1</ele>
        <time>2022-05-28T10:24:57.000Z</time>
      </trkpt>
      <trkpt lat="46.34427" lon="6.005">
        <ele>1608</ele>
        <time>2022-05-28T10:25:07.000Z</time>
      </trkpt>
      <trkpt lat="46.34425" lon="6.005">
        <ele>1607.9</ele>
        <time>2022-05-28T10:25:21.000Z</time>
      </trkpt>
      <trkpt lat="46.34422" lon="6.00501">
        <ele>1606.6</ele>
        <time>2022-05-28T10:25:31.000Z</time>
      </trkpt>
      <trkpt lat="46.34424" lon="6.00507">
        <ele>1603.5</ele>
        <time>2022-05-28T10:25:41.000Z</time>
      </trkpt>
      <trkpt lat="46.34425" lon="6.00506">
        <ele>1604</ele>
        <time>2022-05-28T10:26:06.000Z</time>
      </trkpt>
      <trkpt lat="46.3443" lon="6.00502">
        <ele>1607.1</ele>
        <time>2022-05-28T10:26:16.000Z</time>
      </trkpt>
      <trkpt lat="46.34426" lon="6.00508">
        <ele>1603.3</ele>
        <time>2022-05-28T10:26:26.000Z</time>
      </trkpt>
      <trkpt lat="46.34429" lon="6.00507">
        <ele>1604.4</ele>
        <time>2022-05-28T10:26:36.000Z</time>
      </trkpt>
      <trkpt lat="46.34432" lon="6.00507">
        <ele>1604.7</ele>
        <time>2022-05-28T10:26:46.000Z</time>
      </trkpt>
      <trkpt lat="46.34441" lon="6.00504">
        <ele>1607.7</ele>
        <time>2022-05-28T10:26:55.660Z</time>
      </trkpt>
      <trkpt lat="46.34448" lon="6.00496">
        <ele>1609.2</ele>
        <time>2022-05-28T10:27:05.000Z</time>
      </trkpt>
      <trkpt lat="46.34451" lon="6.00502">
        <ele>1607.6</ele>
        <time>2022-05-28T10:27:14.338Z</time>
      </trkpt>
      <trkpt lat="46.34459" lon="6.00506">
        <ele>1604.2</ele>
        <time>2022-05-28T10:27:23.624Z</time>
      </trkpt>
      <trkpt lat="46.34471" lon="6.00493">
        <ele>1603.8</ele>
        <time>2022-05-28T10:27:33.503Z</time>
      </trkpt>
      <trkpt lat="46.3448" lon="6.00491">
        <ele>1602.7</ele>
        <time>2022-05-28T10:27:43.002Z</time>
      </trkpt>
      <trkpt lat="46.34489" lon="6.00491">
        <ele>1601.6</ele>
        <time>2022-05-28T10:27:52.481Z</time>
      </trkpt>
      <trkpt lat="46.34498" lon="6.00497">
        <ele>1600.4</ele>
        <time>2022-05-28T10:28:02.000Z</time>
      </trkpt>
      <trkpt lat="46.34505" lon="6.00508">
        <ele>1594.3</ele>
        <time>2022-05-28T10:28:11.482Z</time>
      </trkpt>
      <trkpt lat="46.34513" lon="6.00501">
        <ele>1597.8</ele>
        <time>2022-05-28T10:28:21.705Z</time>
      </trkpt>
      <trkpt lat="46.34521" lon="6.005">
        <ele>1597.8</ele>
        <time>2022-05-28T10:28:31.723Z</time>
      </trkpt>
      <trkpt lat="46.34531" lon="6.00493">
        <ele>1597</ele>
        <time>2022-05-28T10:28:41.443Z</time>
      </trkpt>
      <trkpt lat="46.3454" lon="6.00494">
        <ele>1596.2</ele>
        <time>2022-05-28T10:28:51.000Z</time>
      </trkpt>
      <trkpt lat="46.34551" lon="6.00498">
        <ele>1595.3</ele>
        <time>2022-05-28T10:29:00.522Z</time>
      </trkpt>
      <trkpt lat="46.34562" lon="6.00496">
        <ele>1594.7</ele>
        <time>2022-05-28T10:29:10.745Z</time>
      </trkpt>
      <trkpt lat="46.34574" lon="6.00497">
        <ele>1594.7</ele>
        <time>2022-05-28T10:29:20.000Z</time>
      </trkpt>
      <trkpt lat="46.34587" lon="6.00499">
        <ele>1594.4</ele>
        <time>2022-05-28T10:29:29.542Z</time>
      </trkpt>
      <trkpt lat="46.34596" lon="6.00497">
        <ele>1592.7</ele>
        <time>2022-05-28T10:29:38.644Z</time>
      </trkpt>
      <trkpt lat="46.34607" lon="6.00502">
        <ele>1591.4</ele>
        <time>2022-05-28T10:29:47.683Z</time>
      </trkpt>
      <trkpt lat="46.34618" lon="6.0051">
        <ele>1589.9</ele>
        <time>2022-05-28T10:29:57.344Z</time>
      </trkpt>
      <trkpt lat="46.34627" lon="6.00519">
        <ele>1590.1</ele>
        <time>2022-05-28T10:30:06.943Z</time>
      </trkpt>
      <trkpt lat="46.34637" lon="6.00525">
        <ele>1591.4</ele>
        <time>2022-05-28T10:30:16.164Z</time>
      </trkpt>
      <trkpt lat="46.34644" lon="6.00535">
        <ele>1591.7</ele>
        <time>2022-05-28T10:30:26.000Z</time>
      </trkpt>
      <trkpt lat="46.34652" lon="6.00544">
        <ele>1592.1</ele>
        <time>2022-05-28T10:30:35.090Z</time>
      </trkpt>
      <trkpt lat="46.34663" lon="6.0055">
        <ele>1593.6</ele>
        <time>2022-05-28T10:30:44.263Z</time>
      </trkpt>
      <trkpt lat="46.34666" lon="6.00553">
        <ele>1594.4</ele>
        <time>2022-05-28T10:30:54.000Z</time>
      </trkpt>
      <trkpt lat="46.34667" lon="6.00554">
        <ele>1594.7</ele>
        <time>2022-05-28T10:31:03.661Z</time>
      </trkpt>
      <trkpt lat="46.34669" lon="6.00557">
        <ele>1594.4</ele>
        <time>2022-05-28T10:31:13.100Z</time>
      </trkpt>
      <trkpt lat="46.34678" lon="6.00569">
        <ele>1592.3</ele>
        <time>2022-05-28T10:31:22.224Z</time>
      </trkpt>
      <trkpt lat="46.34686" lon="6.00573">
        <ele>1592.9</ele>
        <time>2022-05-28T10:31:31.542Z</time>
      </trkpt>
      <trkpt lat="46.34689" lon="6.00581">
        <ele>1593.5</ele>
        <time>2022-05-28T10:31:41.000Z</time>
      </trkpt>
      <trkpt lat="46.3469" lon="6.00583">
        <ele>1593.6</ele>
        <time>2022-05-28T10:31:50.522Z</time>
      </trkpt>
      <trkpt lat="46.34699" lon="6.00585">
        <ele>1593.1</ele>
        <time>2022-05-28T10:31:59.543Z</time>
      </trkpt>
      <trkpt lat="46.34711" lon="6.00587">
        <ele>1589.9</ele>
        <time>2022-05-28T10:32:08.660Z</time>
      </trkpt>
      <trkpt lat="46.34717" lon="6.00584">
        <ele>1589.2</ele>
        <time>2022-05-28T10:32:18.445Z</time>
      </trkpt>
      <trkpt lat="46.34721" lon="6.00581">
        <ele>1588.2</ele>
        <time>2022-05-28T10:32:28.524Z</time>
      </trkpt>
      <trkpt lat="46.34728" lon="6.00592">
        <ele>1586.9</ele>
        <time>2022-05-28T10:32:38.000Z</time>
      </trkpt>
      <trkpt lat="46.34739" lon="6.00594">
        <ele>1586.8</ele>
        <time>2022-05-28T10:32:48.000Z</time>
      </trkpt>
      <trkpt lat="46.34749" lon="6.006">
        <ele>1586</ele>
        <time>2022-05-28T10:32:57.525Z</time>
      </trkpt>
      <trkpt lat="46.34759" lon="6.00594">
        <ele>1588.8</ele>
        <time>2022-05-28T10:33:06.561Z</time>
      </trkpt>
      <trkpt lat="46.34769" lon="6.00595">
        <ele>1590.5</ele>
        <time>2022-05-28T10:33:16.000Z</time>
      </trkpt>
      <trkpt lat="46.34777" lon="6.00599">
        <ele>1591.7</ele>
        <time>2022-05-28T10:33:25.336Z</time>
      </trkpt>
      <trkpt lat="46.34787" lon="6.00608">
        <ele>1591.7</ele>
        <time>2022-05-28T10:33:34.600Z</time>
      </trkpt>
      <trkpt lat="46.34795" lon="6.00619">
        <ele>1590.5</ele>
        <time>2022-05-28T10:33:45.000Z</time>
      </trkpt>
      <trkpt lat="46.34805" lon="6.00625">
        <ele>1593.6</ele>
        <time>2022-05-28T10:33:54.403Z</time>
      </trkpt>
      <trkpt lat="46.34812" lon="6.00626">
        <ele>1592.1</ele>
        <time>2022-05-28T10:34:03.541Z</time>
      </trkpt>
      <trkpt lat="46.34813" lon="6.00625">
        <ele>1591.6</ele>
        <time>2022-05-28T10:34:23.605Z</time>
      </trkpt>
      <trkpt lat="46.34824" lon="6.00627">
        <ele>1588.4</ele>
        <time>2022-05-28T10:34:33.000Z</time>
      </trkpt>
      <trkpt lat="46.34832" lon="6.00625">
        <ele>1585.9</ele>
        <time>2022-05-28T10:34:42.764Z</time>
      </trkpt>
      <trkpt lat="46.3484" lon="6.00624">
        <ele>1581.9</ele>
        <time>2022-05-28T10:34:52.262Z</time>
      </trkpt>
      <trkpt lat="46.34844" lon="6.00631">
        <ele>1579.3</ele>
        <time>2022-05-28T10:35:01.443Z</time>
      </trkpt>
      <trkpt lat="46.34848" lon="6.00633">
        <ele>1577.2</ele>
        <time>2022-05-28T10:35:11.603Z</time>
      </trkpt>
      <trkpt lat="46.34852" lon="6.00639">
        <ele>1575.1</ele>
        <time>2022-05-28T10:35:21.045Z</time>
      </trkpt>
      <trkpt lat="46.3486" lon="6.00644">
        <ele>1571.3</ele>
        <time>2022-05-28T10:35:30.701Z</time>
      </trkpt>
      <trkpt lat="46.34863" lon="6.00646">
        <ele>1570.5</ele>
        <time>2022-05-28T10:35:40.525Z</time>
      </trkpt>
      <trkpt lat="46.34873" lon="6.00642">
        <ele>1569</ele>
        <time>2022-05-28T10:35:50.600Z</time>
      </trkpt>
      <trkpt lat="46.34886" lon="6.00645">
        <ele>1567.8</ele>
        <time>2022-05-28T10:36:00.620Z</time>
      </trkpt>
      <trkpt lat="46.34898" lon="6.00644">
        <ele>1564.7</ele>
        <time>2022-05-28T10:36:10.043Z</time>
      </trkpt>
      <trkpt lat="46.34902" lon="6.00649">
        <ele>1563.3</ele>
        <time>2022-05-28T10:36:20.000Z</time>
      </trkpt>
      <trkpt lat="46.34903" lon="6.00653">
        <ele>1563.2</ele>
        <time>2022-05-28T10:36:29.544Z</time>
      </trkpt>
      <trkpt lat="46.34914" lon="6.00649">
        <ele>1559.4</ele>
        <time>2022-05-28T10:36:39.000Z</time>
      </trkpt>
      <trkpt lat="46.34919" lon="6.00665">
        <ele>1557</ele>
        <time>2022-05-28T10:36:48.064Z</time>
      </trkpt>
      <trkpt lat="46.34931" lon="6.00665">
        <ele>1552.5</ele>
        <time>2022-05-28T10:36:57.745Z</time>
      </trkpt>
      <trkpt lat="46.34943" lon="6.00661">
        <ele>1547.5</ele>
        <time>2022-05-28T10:37:07.742Z</time>
      </trkpt>
      <trkpt lat="46.34946" lon="6.00648">
        <ele>1546.2</ele>
        <time>2022-05-28T10:37:17.000Z</time>
      </trkpt>
      <trkpt lat="46.34947" lon="6.00643">
        <ele>1545.6</ele>
        <time>2022-05-28T10:37:26.463Z</time>
      </trkpt>
      <trkpt lat="46.34949" lon="6.00645">
        <ele>1544.5</ele>
        <time>2022-05-28T10:37:36.000Z</time>
      </trkpt>
      <trkpt lat="46.34951" lon="6.00643">
        <ele>1543.3</ele>
        <time>2022-05-28T10:37:46.000Z</time>
      </trkpt>
      <trkpt lat="46.34951" lon="6.0064">
        <ele>1543.7</ele>
        <time>2022-05-28T10:37:56.000Z</time>
      </trkpt>
      <trkpt lat="46.34949" lon="6.00641">
        <ele>1544.5</ele>
        <time>2022-05-28T10:38:06.000Z</time>
      </trkpt>
      <trkpt lat="46.34944" lon="6.00642">
        <ele>1547.3</ele>
        <time>2022-05-28T10:38:16.000Z</time>
      </trkpt>
      <trkpt lat="46.34945" lon="6.00639">
        <ele>1546.5</ele>
        <time>2022-05-28T10:38:25.223Z</time>
      </trkpt>
      <trkpt lat="46.34954" lon="6.00637">
        <ele>1542.4</ele>
        <time>2022-05-28T10:38:34.626Z</time>
      </trkpt>
      <trkpt lat="46.34963" lon="6.00642">
        <ele>1537</ele>
        <time>2022-05-28T10:38:44.565Z</time>
      </trkpt>
      <trkpt lat="46.34963" lon="6.00645">
        <ele>1536.8</ele>
        <time>2022-05-28T10:38:54.000Z</time>
      </trkpt>
      <trkpt lat="46.34962" lon="6.00646">
        <ele>1537.3</ele>
        <time>2022-05-28T10:39:04.000Z</time>
      </trkpt>
      <trkpt lat="46.34962" lon="6.00644">
        <ele>1537.4</ele>
        <time>2022-05-28T10:39:38.703Z</time>
      </trkpt>
      <trkpt lat="46.34963" lon="6.00639">
        <ele>1537.7</ele>
        <time>2022-05-28T10:39:48.000Z</time>
      </trkpt>
      <trkpt lat="46.34963" lon="6.00637">
        <ele>1538</ele>
        <time>2022-05-28T10:40:05.000Z</time>
      </trkpt>
      <trkpt lat="46.34967" lon="6.0063">
        <ele>1536.6</ele>
        <time>2022-05-28T10:40:14.660Z</time>
      </trkpt>
      <trkpt lat="46.34969" lon="6.00628">
        <ele>1536</ele>
        <time>2022-05-28T10:40:24.000Z</time>
      </trkpt>
      <trkpt lat="46.34971" lon="6.00637">
        <ele>1533.8</ele>
        <time>2022-05-28T10:40:34.000Z</time>
      </trkpt>
      <trkpt lat="46.3497" lon="6.00638">
        <ele>1534.1</ele>
        <time>2022-05-28T10:40:43.500Z</time>
      </trkpt>
      <trkpt lat="46.34964" lon="6.0063">
        <ele>1537.9</ele>
        <time>2022-05-28T10:40:53.000Z</time>
      </trkpt>
      <trkpt lat="46.34961" lon="6.00628">
        <ele>1539.6</ele>
        <time>2022-05-28T10:41:03.000Z</time>
      </trkpt>
      <trkpt lat="46.34968" lon="6.00629">
        <ele>1536.3</ele>
        <time>2022-05-28T10:41:13.000Z</time>
      </trkpt>
      <trkpt lat="46.34969" lon="6.00629">
        <ele>1535.9</ele>
        <time>2022-05-28T10:41:33.760Z</time>
      </trkpt>
      <trkpt lat="46.3497" lon="6.00629">
        <ele>1535.4</ele>
        <time>2022-05-28T10:41:43.000Z</time>
      </trkpt>
      <trkpt lat="46.34969" lon="6.0063">
        <ele>1535.9</ele>
        <time>2022-05-28T10:41:56.723Z</time>
      </trkpt>
      <trkpt lat="46.3497" lon="6.00637">
        <ele>1534.6</ele>
        <time>2022-05-28T10:42:06.523Z</time>
      </trkpt>
      <trkpt lat="46.34978" lon="6.00643">
        <ele>1528.3</ele>
        <time>2022-05-28T10:42:16.312Z</time>
      </trkpt>
      <trkpt lat="46.34983" lon="6.00645">
        <ele>1524.7</ele>
        <time>2022-05-28T10:42:25.542Z</time>
      </trkpt>
      <trkpt lat="46.34985" lon="6.00651">
        <ele>1521.8</ele>
        <time>2022-05-28T10:42:34.585Z</time>
      </trkpt>
      <trkpt lat="46.34987" lon="6.00651">
        <ele>1520.1</ele>
        <time>2022-05-28T10:42:44.000Z</time>
      </trkpt>
      <trkpt lat="46.34993" lon="6.00651">
        <ele>1516.2</ele>
        <time>2022-05-28T10:42:53.521Z</time>
      </trkpt>
      <trkpt lat="46.34993" lon="6.0066">
        <ele>1514</ele>
        <time>2022-05-28T10:43:04.000Z</time>
      </trkpt>
      <trkpt lat="46.34995" lon="6.0066">
        <ele>1512.8</ele>
        <time>2022-05-28T10:43:13.421Z</time>
      </trkpt>
      <trkpt lat="46.35001" lon="6.00654">
        <ele>1510.3</ele>
        <time>2022-05-28T10:43:22.764Z</time>
      </trkpt>
      <trkpt lat="46.35003" lon="6.0066">
        <ele>1508</ele>
        <time>2022-05-28T10:43:32.000Z</time>
      </trkpt>
      <trkpt lat="46.35006" lon="6.00662">
        <ele>1506.2</ele>
        <time>2022-05-28T10:43:41.201Z</time>
      </trkpt>
      <trkpt lat="46.35009" lon="6.00665">
        <ele>1503.7</ele>
        <time>2022-05-28T10:43:51.000Z</time>
      </trkpt>
      <trkpt lat="46.35017" lon="6.00663">
        <ele>1500.2</ele>
        <time>2022-05-28T10:44:00.542Z</time>
      </trkpt>
      <trkpt lat="46.35023" lon="6.00655">
        <ele>1497.7</ele>
        <time>2022-05-28T10:44:10.000Z</time>
      </trkpt>
      <trkpt lat="46.3503" lon="6.00649">
        <ele>1495.1</ele>
        <time>2022-05-28T10:44:19.483Z</time>
      </trkpt>
      <trkpt lat="46.35037" lon="6.00648">
        <ele>1492.8</ele>
        <time>2022-05-28T10:44:29.000Z</time>
      </trkpt>
      <trkpt lat="46.35041" lon="6.00653">
        <ele>1490.4</ele>
        <time>2022-05-28T10:44:38.482Z</time>
      </trkpt>
      <trkpt lat="46.35043" lon="6.00667">
        <ele>1488</ele>
        <time>2022-05-28T10:44:48.185Z</time>
      </trkpt>
      <trkpt lat="46.35047" lon="6.00678">
        <ele>1484.8</ele>
        <time>2022-05-28T10:44:57.402Z</time>
      </trkpt>
      <trkpt lat="46.35053" lon="6.00683">
        <ele>1482.2</ele>
        <time>2022-05-28T10:45:07.000Z</time>
      </trkpt>
      <trkpt lat="46.35053" lon="6.00693">
        <ele>1480.7</ele>
        <time>2022-05-28T10:45:16.579Z</time>
      </trkpt>
      <trkpt lat="46.35056" lon="6.00693">
        <ele>1480.1</ele>
        <time>2022-05-28T10:45:26.000Z</time>
      </trkpt>
      <trkpt lat="46.35077" lon="6.00758">
        <ele>1473.4</ele>
        <time>2022-05-28T10:45:35.424Z</time>
      </trkpt>
      <trkpt lat="46.35074" lon="6.00789">
        <ele>1470.7</ele>
        <time>2022-05-28T10:45:44.702Z</time>
      </trkpt>
      <trkpt lat="46.35062" lon="6.00764">
        <ele>1470.5</ele>
        <time>2022-05-28T10:45:54.000Z</time>
      </trkpt>
      <trkpt lat="46.35073" lon="6.00752">
        <ele>1473.3</ele>
        <time>2022-05-28T10:46:03.465Z</time>
      </trkpt>
      <trkpt lat="46.35085" lon="6.00755">
        <ele>1474.7</ele>
        <time>2022-05-28T10:46:13.000Z</time>
      </trkpt>
      <trkpt lat="46.35096" lon="6.00758">
        <ele>1475.5</ele>
        <time>2022-05-28T10:46:22.445Z</time>
      </trkpt>
      <trkpt lat="46.35105" lon="6.00765">
        <ele>1476.3</ele>
        <time>2022-05-28T10:46:31.462Z</time>
      </trkpt>
      <trkpt lat="46.35116" lon="6.00773">
        <ele>1477.8</ele>
        <time>2022-05-28T10:46:41.000Z</time>
      </trkpt>
      <trkpt lat="46.35122" lon="6.00785">
        <ele>1479.3</ele>
        <time>2022-05-28T10:46:50.339Z</time>
      </trkpt>
      <trkpt lat="46.35125" lon="6.00797">
        <ele>1480.5</ele>
        <time>2022-05-28T10:46:59.521Z</time>
      </trkpt>
      <trkpt lat="46.35133" lon="6.00797">
        <ele>1482.2</ele>
        <time>2022-05-28T10:47:09.666Z</time>
      </trkpt>
      <trkpt lat="46.35139" lon="6.00809">
        <ele>1485</ele>
        <time>2022-05-28T10:47:18.740Z</time>
      </trkpt>
      <trkpt lat="46.35134" lon="6.00817">
        <ele>1485.4</ele>
        <time>2022-05-28T10:47:28.000Z</time>
      </trkpt>
      <trkpt lat="46.3516" lon="6.00841">
        <ele>1504</ele>
        <time>2022-05-28T10:47:38.000Z</time>
      </trkpt>
      <trkpt lat="46.35127" lon="6.00821">
        <ele>1484.2</ele>
        <time>2022-05-28T10:47:48.000Z</time>
      </trkpt>
      <trkpt lat="46.35129" lon="6.0083">
        <ele>1486.5</ele>
        <time>2022-05-28T10:47:58.000Z</time>
      </trkpt>
      <trkpt lat="46.35122" lon="6.00843">
        <ele>1487.5</ele>
        <time>2022-05-28T10:48:08.000Z</time>
      </trkpt>
      <trkpt lat="46.35117" lon="6.00855">
        <ele>1489.2</ele>
        <time>2022-05-28T10:48:17.180Z</time>
      </trkpt>
      <trkpt lat="46.35115" lon="6.0086">
        <ele>1489.5</ele>
        <time>2022-05-28T10:48:27.000Z</time>
      </trkpt>
      <trkpt lat="46.35108" lon="6.00876">
        <ele>1490.9</ele>
        <time>2022-05-28T10:48:36.184Z</time>
      </trkpt>
      <trkpt lat="46.35103" lon="6.00887">
        <ele>1492.3</ele>
        <time>2022-05-28T10:48:46.000Z</time>
      </trkpt>
      <trkpt lat="46.35102" lon="6.00896">
        <ele>1494</ele>
        <time>2022-05-28T10:48:56.000Z</time>
      </trkpt>
      <trkpt lat="46.35102" lon="6.00898">
        <ele>1494.6</ele>
        <time>2022-05-28T10:49:05.079Z</time>
      </trkpt>
      <trkpt lat="46.35107" lon="6.00914">
        <ele>1499.6</ele>
        <time>2022-05-28T10:49:14.402Z</time>
      </trkpt>
      <trkpt lat="46.35103" lon="6.00925">
        <ele>1500.7</ele>
        <time>2022-05-28T10:49:25.000Z</time>
      </trkpt>
      <trkpt lat="46.351" lon="6.00933">
        <ele>1501.2</ele>
        <time>2022-05-28T10:49:34.622Z</time>
      </trkpt>
      <trkpt lat="46.35099" lon="6.0095">
        <ele>1503.4</ele>
        <time>2022-05-28T10:49:44.000Z</time>
      </trkpt>
      <trkpt lat="46.35099" lon="6.00967">
        <ele>1506.1</ele>
        <time>2022-05-28T10:49:53.360Z</time>
      </trkpt>
      <trkpt lat="46.35096" lon="6.00976">
        <ele>1506.3</ele>
        <time>2022-05-28T10:50:02.898Z</time>
      </trkpt>
      <trkpt lat="46.35092" lon="6.00973">
        <ele>1504.7</ele>
        <time>2022-05-28T10:50:12.000Z</time>
      </trkpt>
      <trkpt lat="46.35093" lon="6.00989">
        <ele>1505.2</ele>
        <time>2022-05-28T10:50:21.703Z</time>
      </trkpt>
      <trkpt lat="46.35097" lon="6.00998">
        <ele>1506.8</ele>
        <time>2022-05-28T10:50:31.483Z</time>
      </trkpt>
      <trkpt lat="46.351" lon="6.00999">
        <ele>1508</ele>
        <time>2022-05-28T10:50:40.680Z</time>
      </trkpt>
      <trkpt lat="46.35109" lon="6.01002">
        <ele>1510.9</ele>
        <time>2022-05-28T10:50:50.000Z</time>
      </trkpt>
      <trkpt lat="46.35111" lon="6.01003">
        <ele>1511.6</ele>
        <time>2022-05-28T10:51:01.243Z</time>
      </trkpt>
      <trkpt lat="46.35126" lon="6.01004">
        <ele>1514.8</ele>
        <time>2022-05-28T10:51:11.000Z</time>
      </trkpt>
      <trkpt lat="46.3514" lon="6.01005">
        <ele>1517.8</ele>
        <time>2022-05-28T10:51:20.161Z</time>
      </trkpt>
      <trkpt lat="46.35144" lon="6.01005">
        <ele>1519.1</ele>
        <time>2022-05-28T10:51:29.185Z</time>
      </trkpt>
      <trkpt lat="46.35145" lon="6.01005">
        <ele>1519.4</ele>
        <time>2022-05-28T10:51:39.120Z</time>
      </trkpt>
      <trkpt lat="46.35155" lon="6.01001">
        <ele>1522.5</ele>
        <time>2022-05-28T10:51:49.000Z</time>
      </trkpt>
      <trkpt lat="46.35164" lon="6.00995">
        <ele>1525.3</ele>
        <time>2022-05-28T10:51:59.000Z</time>
      </trkpt>
      <trkpt lat="46.35172" lon="6.00991">
        <ele>1526.2</ele>
        <time>2022-05-28T10:52:08.421Z</time>
      </trkpt>
      <trkpt lat="46.3518" lon="6.00988">
        <ele>1526.3</ele>
        <time>2022-05-28T10:52:17.559Z</time>
      </trkpt>
      <trkpt lat="46.35187" lon="6.00986">
        <ele>1526.4</ele>
        <time>2022-05-28T10:52:27.000Z</time>
      </trkpt>
      <trkpt lat="46.35197" lon="6.00995">
        <ele>1527.9</ele>
        <time>2022-05-28T10:52:36.223Z</time>
      </trkpt>
      <trkpt lat="46.35205" lon="6.00998">
        <ele>1529.2</ele>
        <time>2022-05-28T10:52:46.000Z</time>
      </trkpt>
      <trkpt lat="46.35216" lon="6.00993">
        <ele>1530.4</ele>
        <time>2022-05-28T10:52:55.322Z</time>
      </trkpt>
      <trkpt lat="46.35219" lon="6.00995">
        <ele>1531</ele>
        <time>2022-05-28T10:53:04.584Z</time>
      </trkpt>
      <trkpt lat="46.35222" lon="6.00996">
        <ele>1531.6</ele>
        <time>2022-05-28T10:53:14.000Z</time>
      </trkpt>
      <trkpt lat="46.3523" lon="6.01">
        <ele>1534.5</ele>
        <time>2022-05-28T10:53:24.000Z</time>
      </trkpt>
      <trkpt lat="46.35232" lon="6.01001">
        <ele>1535.1</ele>
        <time>2022-05-28T10:53:35.241Z</time>
      </trkpt>
      <trkpt lat="46.3524" lon="6.01011">
        <ele>1538</ele>
        <time>2022-05-28T10:53:44.740Z</time>
      </trkpt>
      <trkpt lat="46.35246" lon="6.01024">
        <ele>1538.4</ele>
        <time>2022-05-28T10:53:54.319Z</time>
      </trkpt>
      <trkpt lat="46.35249" lon="6.01029">
        <ele>1537.8</ele>
        <time>2022-05-28T10:54:04.000Z</time>
      </trkpt>
      <trkpt lat="46.35254" lon="6.01036">
        <ele>1535.4</ele>
        <time>2022-05-28T10:54:14.000Z</time>
      </trkpt>
      <trkpt lat="46.35255" lon="6.01037">
        <ele>1534.9</ele>
        <time>2022-05-28T10:54:24.300Z</time>
      </trkpt>
      <trkpt lat="46.35262" lon="6.01046">
        <ele>1532</ele>
        <time>2022-05-28T10:54:33.343Z</time>
      </trkpt>
      <trkpt lat="46.35267" lon="6.01059">
        <ele>1529.4</ele>
        <time>2022-05-28T10:54:43.000Z</time>
      </trkpt>
      <trkpt lat="46.35266" lon="6.01061">
        <ele>1529.3</ele>
        <time>2022-05-28T10:54:52.500Z</time>
      </trkpt>
      <trkpt lat="46.35267" lon="6.01061">
        <ele>1529.2</ele>
        <time>2022-05-28T10:55:10.320Z</time>
      </trkpt>
      <trkpt lat="46.35274" lon="6.01069">
        <ele>1528.4</ele>
        <time>2022-05-28T10:55:19.442Z</time>
      </trkpt>
      <trkpt lat="46.35281" lon="6.01071">
        <ele>1528.4</ele>
        <time>2022-05-28T10:55:29.000Z</time>
      </trkpt>
      <trkpt lat="46.35296" lon="6.01073">
        <ele>1528</ele>
        <time>2022-05-28T10:55:38.359Z</time>
      </trkpt>
      <trkpt lat="46.35304" lon="6.01081">
        <ele>1527.2</ele>
        <time>2022-05-28T10:55:47.523Z</time>
      </trkpt>
      <trkpt lat="46.35312" lon="6.01087">
        <ele>1525.8</ele>
        <time>2022-05-28T10:55:56.660Z</time>
      </trkpt>
      <trkpt lat="46.35325" lon="6.0109">
        <ele>1524.6</ele>
        <time>2022-05-28T10:56:06.142Z</time>
      </trkpt>
      <trkpt lat="46.35337" lon="6.01093">
        <ele>1523.6</ele>
        <time>2022-05-28T10:56:15.758Z</time>
      </trkpt>
      <trkpt lat="46.35342" lon="6.01092">
        <ele>1523.1</ele>
        <time>2022-05-28T10:56:25.344Z</time>
      </trkpt>
      <trkpt lat="46.35349" lon="6.01094">
        <ele>1521.7</ele>
        <time>2022-05-28T10:56:35.000Z</time>
      </trkpt>
      <trkpt lat="46.35359" lon="6.01097">
        <ele>1520.2</ele>
        <time>2022-05-28T10:56:44.302Z</time>
      </trkpt>
      <trkpt lat="46.35372" lon="6.01103">
        <ele>1518.9</ele>
        <time>2022-05-28T10:56:54.000Z</time>
      </trkpt>
      <trkpt lat="46.35384" lon="6.01104">
        <ele>1518.8</ele>
        <time>2022-05-28T10:57:03.320Z</time>
      </trkpt>
      <trkpt lat="46.3539" lon="6.01108">
        <ele>1519.3</ele>
        <time>2022-05-28T10:57:13.000Z</time>
      </trkpt>
      <trkpt lat="46.35397" lon="6.01111">
        <ele>1518.8</ele>
        <time>2022-05-28T10:57:22.324Z</time>
      </trkpt>
      <trkpt lat="46.35405" lon="6.0112">
        <ele>1516.6</ele>
        <time>2022-05-28T10:57:31.722Z</time>
      </trkpt>
      <trkpt lat="46.35411" lon="6.01125">
        <ele>1515.4</ele>
        <time>2022-05-28T10:57:42.000Z</time>
      </trkpt>
      <trkpt lat="46.35424" lon="6.01135">
        <ele>1514</ele>
        <time>2022-05-28T10:57:52.000Z</time>
      </trkpt>
      <trkpt lat="46.35435" lon="6.01137">
        <ele>1513.4</ele>
        <time>2022-05-28T10:58:01.442Z</time>
      </trkpt>
      <trkpt lat="46.35444" lon="6.01137">
        <ele>1513</ele>
        <time>2022-05-28T10:58:10.524Z</time>
      </trkpt>
      <trkpt lat="46.35453" lon="6.0114">
        <ele>1512.3</ele>
        <time>2022-05-28T10:58:20.000Z</time>
      </trkpt>
      <trkpt lat="46.35464" lon="6.0114">
        <ele>1511.6</ele>
        <time>2022-05-28T10:58:29.703Z</time>
      </trkpt>
      <trkpt lat="46.35471" lon="6.01143">
        <ele>1510.2</ele>
        <time>2022-05-28T10:58:40.000Z</time>
      </trkpt>
      <trkpt lat="46.35474" lon="6.01146">
        <ele>1508.9</ele>
        <time>2022-05-28T10:58:49.602Z</time>
      </trkpt>
      <trkpt lat="46.35482" lon="6.0115">
        <ele>1507.4</ele>
        <time>2022-05-28T10:58:59.000Z</time>
      </trkpt>
      <trkpt lat="46.35486" lon="6.01153">
        <ele>1506.3</ele>
        <time>2022-05-28T10:59:20.000Z</time>
      </trkpt>
      <trkpt lat="46.35492" lon="6.01158">
        <ele>1504.3</ele>
        <time>2022-05-28T10:59:29.706Z</time>
      </trkpt>
      <trkpt lat="46.35501" lon="6.01162">
        <ele>1502.6</ele>
        <time>2022-05-28T10:59:39.443Z</time>
      </trkpt>
      <trkpt lat="46.35502" lon="6.01162">
        <ele>1502.6</ele>
        <time>2022-05-28T10:59:49.000Z</time>
      </trkpt>
      <trkpt lat="46.35507" lon="6.01165">
        <ele>1501.2</ele>
        <time>2022-05-28T10:59:58.341Z</time>
      </trkpt>
      <trkpt lat="46.35515" lon="6.01173">
        <ele>1500.8</ele>
        <time>2022-05-28T11:00:07.400Z</time>
      </trkpt>
      <trkpt lat="46.35514" lon="6.01186">
        <ele>1501.2</ele>
        <time>2022-05-28T11:00:16.681Z</time>
      </trkpt>
      <trkpt lat="46.35513" lon="6.01187">
        <ele>1501.1</ele>
        <time>2022-05-28T11:00:29.519Z</time>
      </trkpt>
      <trkpt lat="46.35512" lon="6.01197">
        <ele>1501.5</ele>
        <time>2022-05-28T11:00:39.000Z</time>
      </trkpt>
      <trkpt lat="46.35512" lon="6.01198">
        <ele>1501.8</ele>
        <time>2022-05-28T11:00:48.441Z</time>
      </trkpt>
      <trkpt lat="46.35512" lon="6.01203">
        <ele>1503</ele>
        <time>2022-05-28T11:00:58.000Z</time>
      </trkpt>
      <trkpt lat="46.35512" lon="6.01213">
        <ele>1505.4</ele>
        <time>2022-05-28T11:01:08.000Z</time>
      </trkpt>
      <trkpt lat="46.35504" lon="6.01224">
        <ele>1505.3</ele>
        <time>2022-05-28T11:01:17.400Z</time>
      </trkpt>
      <trkpt lat="46.355" lon="6.01237">
        <ele>1508.8</ele>
        <time>2022-05-28T11:01:26.624Z</time>
      </trkpt>
      <trkpt lat="46.35499" lon="6.01239">
        <ele>1509.5</ele>
        <time>2022-05-28T11:01:35.639Z</time>
      </trkpt>
      <trkpt lat="46.35504" lon="6.01253">
        <ele>1514.6</ele>
        <time>2022-05-28T11:01:45.582Z</time>
      </trkpt>
      <trkpt lat="46.35502" lon="6.01263">
        <ele>1516.4</ele>
        <time>2022-05-28T11:01:55.000Z</time>
      </trkpt>
      <trkpt lat="46.35499" lon="6.01275">
        <ele>1518.2</ele>
        <time>2022-05-28T11:02:04.464Z</time>
      </trkpt>
      <trkpt lat="46.35496" lon="6.01288">
        <ele>1520.1</ele>
        <time>2022-05-28T11:02:13.621Z</time>
      </trkpt>
      <trkpt lat="46.35492" lon="6.01307">
        <ele>1523.1</ele>
        <time>2022-05-28T11:02:23.000Z</time>
      </trkpt>
      <trkpt lat="46.35495" lon="6.01324">
        <ele>1523.4</ele>
        <time>2022-05-28T11:02:32.621Z</time>
      </trkpt>
      <trkpt lat="46.35502" lon="6.01329">
        <ele>1522.9</ele>
        <time>2022-05-28T11:02:42.000Z</time>
      </trkpt>
      <trkpt lat="46.35505" lon="6.0133">
        <ele>1522.7</ele>
        <time>2022-05-28T11:02:52.000Z</time>
      </trkpt>
      <trkpt lat="46.35509" lon="6.01333">
        <ele>1522.7</ele>
        <time>2022-05-28T11:03:01.421Z</time>
      </trkpt>
      <trkpt lat="46.35514" lon="6.01346">
        <ele>1522.5</ele>
        <time>2022-05-28T11:03:10.505Z</time>
      </trkpt>
      <trkpt lat="46.35515" lon="6.01368">
        <ele>1523</ele>
        <time>2022-05-28T11:03:19.600Z</time>
      </trkpt>
      <trkpt lat="46.35511" lon="6.01391">
        <ele>1522.7</ele>
        <time>2022-05-28T11:03:29.440Z</time>
      </trkpt>
      <trkpt lat="46.35511" lon="6.01405">
        <ele>1522.8</ele>
        <time>2022-05-28T11:03:38.505Z</time>
      </trkpt>
      <trkpt lat="46.35514" lon="6.0142">
        <ele>1522.5</ele>
        <time>2022-05-28T11:03:47.721Z</time>
      </trkpt>
      <trkpt lat="46.35515" lon="6.01435">
        <ele>1522.4</ele>
        <time>2022-05-28T11:03:57.000Z</time>
      </trkpt>
      <trkpt lat="46.35519" lon="6.01441">
        <ele>1521.9</ele>
        <time>2022-05-28T11:04:07.000Z</time>
      </trkpt>
      <trkpt lat="46.35526" lon="6.01455">
        <ele>1522.6</ele>
        <time>2022-05-28T11:04:17.504Z</time>
      </trkpt>
      <trkpt lat="46.35528" lon="6.01464">
        <ele>1523.9</ele>
        <time>2022-05-28T11:04:27.320Z</time>
      </trkpt>
      <trkpt lat="46.35533" lon="6.01476">
        <ele>1526</ele>
        <time>2022-05-28T11:04:36.362Z</time>
      </trkpt>
      <trkpt lat="46.35539" lon="6.01488">
        <ele>1528.5</ele>
        <time>2022-05-28T11:04:45.701Z</time>
      </trkpt>
      <trkpt lat="46.35546" lon="6.01492">
        <ele>1530.8</ele>
        <time>2022-05-28T11:04:55.000Z</time>
      </trkpt>
      <trkpt lat="46.35547" lon="6.01493">
        <ele>1531.1</ele>
        <time>2022-05-28T11:05:06.000Z</time>
      </trkpt>
      <trkpt lat="46.35556" lon="6.01494">
        <ele>1533.5</ele>
        <time>2022-05-28T11:05:15.318Z</time>
      </trkpt>
      <trkpt lat="46.35555" lon="6.01495">
        <ele>1533.5</ele>
        <time>2022-05-28T11:05:31.076Z</time>
      </trkpt>
      <trkpt lat="46.35552" lon="6.01503">
        <ele>1534.5</ele>
        <time>2022-05-28T11:05:40.481Z</time>
      </trkpt>
      <trkpt lat="46.35562" lon="6.01511">
        <ele>1537.1</ele>
        <time>2022-05-28T11:05:50.000Z</time>
      </trkpt>
      <trkpt lat="46.35574" lon="6.01508">
        <ele>1536.7</ele>
        <time>2022-05-28T11:05:59.558Z</time>
      </trkpt>
      <trkpt lat="46.35578" lon="6.01508">
        <ele>1536.7</ele>
        <time>2022-05-28T11:06:09.344Z</time>
      </trkpt>
      <trkpt lat="46.3559" lon="6.01515">
        <ele>1533.9</ele>
        <time>2022-05-28T11:06:19.000Z</time>
      </trkpt>
      <trkpt lat="46.3559" lon="6.01526">
        <ele>1533.4</ele>
        <time>2022-05-28T11:06:28.522Z</time>
      </trkpt>
      <trkpt lat="46.3559" lon="6.01538">
        <ele>1531.9</ele>
        <time>2022-05-28T11:06:38.000Z</time>
      </trkpt>
      <trkpt lat="46.3559" lon="6.01551">
        <ele>1530.1</ele>
        <time>2022-05-28T11:06:47.102Z</time>
      </trkpt>
      <trkpt lat="46.35597" lon="6.0157">
        <ele>1525.7</ele>
        <time>2022-05-28T11:06:56.424Z</time>
      </trkpt>
      <trkpt lat="46.356" lon="6.01574">
        <ele>1524.8</ele>
        <time>2022-05-28T11:07:05.545Z</time>
      </trkpt>
      <trkpt lat="46.35603" lon="6.01574">
        <ele>1524.4</ele>
        <time>2022-05-28T11:07:25.420Z</time>
      </trkpt>
      <trkpt lat="46.35611" lon="6.01597">
        <ele>1522.5</ele>
        <time>2022-05-28T11:07:35.000Z</time>
      </trkpt>
      <trkpt lat="46.3561" lon="6.01613">
        <ele>1521.7</ele>
        <time>2022-05-28T11:07:44.439Z</time>
      </trkpt>
      <trkpt lat="46.3561" lon="6.01623">
        <ele>1520.7</ele>
        <time>2022-05-28T11:07:54.000Z</time>
      </trkpt>
      <trkpt lat="46.35619" lon="6.01642">
        <ele>1518.3</ele>
        <time>2022-05-28T11:08:03.282Z</time>
      </trkpt>
      <trkpt lat="46.35625" lon="6.01647">
        <ele>1517</ele>
        <time>2022-05-28T11:08:13.139Z</time>
      </trkpt>
      <trkpt lat="46.35635" lon="6.01657">
        <ele>1518.4</ele>
        <time>2022-05-28T11:08:22.183Z</time>
      </trkpt>
      <trkpt lat="46.35648" lon="6.01665">
        <ele>1522.3</ele>
        <time>2022-05-28T11:08:32.202Z</time>
      </trkpt>
      <trkpt lat="46.35656" lon="6.01666">
        <ele>1523.9</ele>
        <time>2022-05-28T11:08:42.000Z</time>
      </trkpt>
      <trkpt lat="46.35661" lon="6.01662">
        <ele>1524.5</ele>
        <time>2022-05-28T11:08:52.000Z</time>
      </trkpt>
      <trkpt lat="46.3567" lon="6.01648">
        <ele>1524.1</ele>
        <time>2022-05-28T11:09:01.162Z</time>
      </trkpt>
      <trkpt lat="46.35678" lon="6.01643">
        <ele>1524.1</ele>
        <time>2022-05-28T11:09:10.581Z</time>
      </trkpt>
      <trkpt lat="46.35687" lon="6.01647">
        <ele>1524.7</ele>
        <time>2022-05-28T11:09:20.263Z</time>
      </trkpt>
      <trkpt lat="46.35688" lon="6.01647">
        <ele>1524.8</ele>
        <time>2022-05-28T11:09:29.560Z</time>
      </trkpt>
      <trkpt lat="46.35703" lon="6.01659">
        <ele>1527.5</ele>
        <time>2022-05-28T11:09:39.000Z</time>
      </trkpt>
      <trkpt lat="46.3571" lon="6.0166">
        <ele>1529.9</ele>
        <time>2022-05-28T11:09:57.582Z</time>
      </trkpt>
      <trkpt lat="46.35714" lon="6.01661">
        <ele>1531.3</ele>
        <time>2022-05-28T11:10:07.000Z</time>
      </trkpt>
      <trkpt lat="46.35724" lon="6.01654">
        <ele>1532.9</ele>
        <time>2022-05-28T11:10:16.457Z</time>
      </trkpt>
      <trkpt lat="46.35735" lon="6.01649">
        <ele>1533.1</ele>
        <time>2022-05-28T11:10:25.621Z</time>
      </trkpt>
      <trkpt lat="46.35741" lon="6.01647">
        <ele>1533.6</ele>
        <time>2022-05-28T11:10:35.678Z</time>
      </trkpt>
      <trkpt lat="46.35742" lon="6.01648">
        <ele>1533.8</ele>
        <time>2022-05-28T11:10:49.000Z</time>
      </trkpt>
      <trkpt lat="46.35745" lon="6.01644">
        <ele>1533.8</ele>
        <time>2022-05-28T11:11:15.000Z</time>
      </trkpt>
      <trkpt lat="46.35749" lon="6.01639">
        <ele>1533.8</ele>
        <time>2022-05-28T11:11:25.000Z</time>
      </trkpt>
      <trkpt lat="46.3575" lon="6.01642">
        <ele>1534.2</ele>
        <time>2022-05-28T11:11:55.000Z</time>
      </trkpt>
      <trkpt lat="46.35751" lon="6.01643">
        <ele>1534.2</ele>
        <time>2022-05-28T11:12:05.000Z</time>
      </trkpt>
      <trkpt lat="46.35755" lon="6.01647">
        <ele>1534.3</ele>
        <time>2022-05-28T11:12:33.263Z</time>
      </trkpt>
      <trkpt lat="46.35756" lon="6.01662">
        <ele>1535.6</ele>
        <time>2022-05-28T11:12:42.601Z</time>
      </trkpt>
      <trkpt lat="46.35759" lon="6.01666">
        <ele>1536</ele>
        <time>2022-05-28T11:12:52.000Z</time>
      </trkpt>
      <trkpt lat="46.35761" lon="6.01671">
        <ele>1536.7</ele>
        <time>2022-05-28T11:13:01.559Z</time>
      </trkpt>
      <trkpt lat="46.3577" lon="6.01688">
        <ele>1539.6</ele>
        <time>2022-05-28T11:13:11.521Z</time>
      </trkpt>
      <trkpt lat="46.35781" lon="6.01698">
        <ele>1540.1</ele>
        <time>2022-05-28T11:13:21.560Z</time>
      </trkpt>
      <trkpt lat="46.35781" lon="6.01702">
        <ele>1540.4</ele>
        <time>2022-05-28T11:13:30.663Z</time>
      </trkpt>
      <trkpt lat="46.35782" lon="6.0172">
        <ele>1540.2</ele>
        <time>2022-05-28T11:13:40.000Z</time>
      </trkpt>
      <trkpt lat="46.35773" lon="6.01736">
        <ele>1540.3</ele>
        <time>2022-05-28T11:13:49.161Z</time>
      </trkpt>
      <trkpt lat="46.35768" lon="6.01747">
        <ele>1539.9</ele>
        <time>2022-05-28T11:13:58.503Z</time>
      </trkpt>
      <trkpt lat="46.35774" lon="6.01765">
        <ele>1538.3</ele>
        <time>2022-05-28T11:14:07.517Z</time>
      </trkpt>
      <trkpt lat="46.35783" lon="6.01778">
        <ele>1537.5</ele>
        <time>2022-05-28T11:14:17.523Z</time>
      </trkpt>
      <trkpt lat="46.35793" lon="6.0178">
        <ele>1536.3</ele>
        <time>2022-05-28T11:14:27.000Z</time>
      </trkpt>
      <trkpt lat="46.35805" lon="6.01787">
        <ele>1534.7</ele>
        <time>2022-05-28T11:14:36.562Z</time>
      </trkpt>
      <trkpt lat="46.35809" lon="6.01795">
        <ele>1533.3</ele>
        <time>2022-05-28T11:14:47.000Z</time>
      </trkpt>
      <trkpt lat="46.35811" lon="6.01793">
        <ele>1533.4</ele>
        <time>2022-05-28T11:15:13.000Z</time>
      </trkpt>
      <trkpt lat="46.35823" lon="6.01786">
        <ele>1533.5</ele>
        <time>2022-05-28T11:15:23.000Z</time>
      </trkpt>
      <trkpt lat="46.35839" lon="6.01788">
        <ele>1532.6</ele>
        <time>2022-05-28T11:15:33.000Z</time>
      </trkpt>
      <trkpt lat="46.3585" lon="6.01794">
        <ele>1532.5</ele>
        <time>2022-05-28T11:15:42.085Z</time>
      </trkpt>
      <trkpt lat="46.35852" lon="6.01803">
        <ele>1532.6</ele>
        <time>2022-05-28T11:15:51.403Z</time>
      </trkpt>
      <trkpt lat="46.35848" lon="6.01813">
        <ele>1530.9</ele>
        <time>2022-05-28T11:16:00.658Z</time>
      </trkpt>
      <trkpt lat="46.35848" lon="6.0181">
        <ele>1531.3</ele>
        <time>2022-05-28T11:17:14.461Z</time>
      </trkpt>
      <trkpt lat="46.35848" lon="6.01784">
        <ele>1532.8</ele>
        <time>2022-05-28T11:17:23.520Z</time>
      </trkpt>
      <trkpt lat="46.35848" lon="6.01769">
        <ele>1533</ele>
        <time>2022-05-28T11:17:33.262Z</time>
      </trkpt>
      <trkpt lat="46.35847" lon="6.01761">
        <ele>1533</ele>
        <time>2022-05-28T11:17:42.283Z</time>
      </trkpt>
      <trkpt lat="46.35848" lon="6.01762">
        <ele>1533</ele>
        <time>2022-05-28T11:19:03.401Z</time>
      </trkpt>
      <trkpt lat="46.3584" lon="6.01781">
        <ele>1533.2</ele>
        <time>2022-05-28T11:19:13.000Z</time>
      </trkpt>
      <trkpt lat="46.35849" lon="6.01772">
        <ele>1532.9</ele>
        <time>2022-05-28T11:19:23.000Z</time>
      </trkpt>
      <trkpt lat="46.35849" lon="6.01769">
        <ele>1532.9</ele>
        <time>2022-05-28T11:19:48.618Z</time>
      </trkpt>
      <trkpt lat="46.35849" lon="6.0176">
        <ele>1532.9</ele>
        <time>2022-05-28T11:19:58.000Z</time>
      </trkpt>
      <trkpt lat="46.35853" lon="6.01751">
        <ele>1532.6</ele>
        <time>2022-05-28T11:20:08.000Z</time>
      </trkpt>
      <trkpt lat="46.35854" lon="6.01749">
        <ele>1532.5</ele>
        <time>2022-05-28T11:20:17.742Z</time>
      </trkpt>
      <trkpt lat="46.35863" lon="6.01743">
        <ele>1531.4</ele>
        <time>2022-05-28T11:20:27.581Z</time>
      </trkpt>
      <trkpt lat="46.35873" lon="6.01735">
        <ele>1529.6</ele>
        <time>2022-05-28T11:20:37.000Z</time>
      </trkpt>
      <trkpt lat="46.35875" lon="6.01731">
        <ele>1529.2</ele>
        <time>2022-05-28T11:20:47.000Z</time>
      </trkpt>
      <trkpt lat="46.35879" lon="6.01725">
        <ele>1528.5</ele>
        <time>2022-05-28T11:20:56.503Z</time>
      </trkpt>
      <trkpt lat="46.35891" lon="6.01713">
        <ele>1526.3</ele>
        <time>2022-05-28T11:21:05.800Z</time>
      </trkpt>
      <trkpt lat="46.35896" lon="6.01704">
        <ele>1524.7</ele>
        <time>2022-05-28T11:21:16.000Z</time>
      </trkpt>
      <trkpt lat="46.35906" lon="6.01692">
        <ele>1521.6</ele>
        <time>2022-05-28T11:21:25.481Z</time>
      </trkpt>
      <trkpt lat="46.35908" lon="6.01689">
        <ele>1520.6</ele>
        <time>2022-05-28T11:21:35.000Z</time>
      </trkpt>
      <trkpt lat="46.35921" lon="6.01684">
        <ele>1516.7</ele>
        <time>2022-05-28T11:21:44.680Z</time>
      </trkpt>
      <trkpt lat="46.35931" lon="6.01684">
        <ele>1514.2</ele>
        <time>2022-05-28T11:21:54.000Z</time>
      </trkpt>
      <trkpt lat="46.35936" lon="6.01671">
        <ele>1513</ele>
        <time>2022-05-28T11:22:03.261Z</time>
      </trkpt>
      <trkpt lat="46.35939" lon="6.01655">
        <ele>1512.1</ele>
        <time>2022-05-28T11:22:12.303Z</time>
      </trkpt>
      <trkpt lat="46.35941" lon="6.01644">
        <ele>1511.4</ele>
        <time>2022-05-28T11:22:22.000Z</time>
      </trkpt>
      <trkpt lat="46.35941" lon="6.01632">
        <ele>1511</ele>
        <time>2022-05-28T11:22:31.463Z</time>
      </trkpt>
      <trkpt lat="46.35945" lon="6.01618">
        <ele>1509.9</ele>
        <time>2022-05-28T11:22:40.623Z</time>
      </trkpt>
      <trkpt lat="46.35955" lon="6.01606">
        <ele>1508.5</ele>
        <time>2022-05-28T11:22:50.000Z</time>
      </trkpt>
      <trkpt lat="46.35961" lon="6.01592">
        <ele>1507.1</ele>
        <time>2022-05-28T11:22:59.360Z</time>
      </trkpt>
      <trkpt lat="46.35976" lon="6.01587">
        <ele>1504.1</ele>
        <time>2022-05-28T11:23:08.403Z</time>
      </trkpt>
      <trkpt lat="46.35988" lon="6.01594">
        <ele>1504</ele>
        <time>2022-05-28T11:23:17.702Z</time>
      </trkpt>
      <trkpt lat="46.35999" lon="6.01594">
        <ele>1503.5</ele>
        <time>2022-05-28T11:23:27.264Z</time>
      </trkpt>
      <trkpt lat="46.36006" lon="6.01583">
        <ele>1500.1</ele>
        <time>2022-05-28T11:23:37.000Z</time>
      </trkpt>
      <trkpt lat="46.36008" lon="6.01575">
        <ele>1498.1</ele>
        <time>2022-05-28T11:23:46.523Z</time>
      </trkpt>
      <trkpt lat="46.36011" lon="6.01557">
        <ele>1494.7</ele>
        <time>2022-05-28T11:23:55.835Z</time>
      </trkpt>
      <trkpt lat="46.36017" lon="6.0154">
        <ele>1491.5</ele>
        <time>2022-05-28T11:24:05.301Z</time>
      </trkpt>
      <trkpt lat="46.36024" lon="6.0153">
        <ele>1488.9</ele>
        <time>2022-05-28T11:24:14.465Z</time>
      </trkpt>
      <trkpt lat="46.36031" lon="6.01522">
        <ele>1487</ele>
        <time>2022-05-28T11:24:23.640Z</time>
      </trkpt>
      <trkpt lat="46.36037" lon="6.01513">
        <ele>1485</ele>
        <time>2022-05-28T11:24:33.000Z</time>
      </trkpt>
      <trkpt lat="46.36044" lon="6.01498">
        <ele>1481.9</ele>
        <time>2022-05-28T11:24:42.437Z</time>
      </trkpt>
      <trkpt lat="46.36048" lon="6.01489">
        <ele>1480.5</ele>
        <time>2022-05-28T11:24:51.661Z</time>
      </trkpt>
      <trkpt lat="46.36051" lon="6.01489">
        <ele>1479.7</ele>
        <time>2022-05-28T11:25:01.082Z</time>
      </trkpt>
      <trkpt lat="46.36066" lon="6.01481">
        <ele>1476.2</ele>
        <time>2022-05-28T11:25:10.259Z</time>
      </trkpt>
      <trkpt lat="46.36075" lon="6.01474">
        <ele>1473.4</ele>
        <time>2022-05-28T11:25:19.442Z</time>
      </trkpt>
      <trkpt lat="46.36085" lon="6.01464">
        <ele>1470.4</ele>
        <time>2022-05-28T11:25:29.619Z</time>
      </trkpt>
      <trkpt lat="46.36091" lon="6.01455">
        <ele>1469.9</ele>
        <time>2022-05-28T11:25:38.702Z</time>
      </trkpt>
      <trkpt lat="46.36095" lon="6.01438">
        <ele>1468.4</ele>
        <time>2022-05-28T11:25:48.000Z</time>
      </trkpt>
      <trkpt lat="46.36092" lon="6.01419">
        <ele>1465.8</ele>
        <time>2022-05-28T11:25:57.260Z</time>
      </trkpt>
      <trkpt lat="46.36094" lon="6.0141">
        <ele>1464.4</ele>
        <time>2022-05-28T11:26:06.501Z</time>
      </trkpt>
      <trkpt lat="46.36109" lon="6.01408">
        <ele>1461</ele>
        <time>2022-05-28T11:26:16.560Z</time>
      </trkpt>
      <trkpt lat="46.36116" lon="6.01403">
        <ele>1458.4</ele>
        <time>2022-05-28T11:26:26.000Z</time>
      </trkpt>
      <trkpt lat="46.36111" lon="6.01398">
        <ele>1458.6</ele>
        <time>2022-05-28T11:26:36.000Z</time>
      </trkpt>
      <trkpt lat="46.36115" lon="6.01397">
        <ele>1457.5</ele>
        <time>2022-05-28T11:26:46.000Z</time>
      </trkpt>
      <trkpt lat="46.36121" lon="6.01396">
        <ele>1455.5</ele>
        <time>2022-05-28T11:26:55.443Z</time>
      </trkpt>
      <trkpt lat="46.36132" lon="6.01394">
        <ele>1452.1</ele>
        <time>2022-05-28T11:27:04.861Z</time>
      </trkpt>
      <trkpt lat="46.36136" lon="6.01391">
        <ele>1450.3</ele>
        <time>2022-05-28T11:27:14.442Z</time>
      </trkpt>
      <trkpt lat="46.36144" lon="6.01386">
        <ele>1447.2</ele>
        <time>2022-05-28T11:27:23.499Z</time>
      </trkpt>
      <trkpt lat="46.36152" lon="6.01382">
        <ele>1444.9</ele>
        <time>2022-05-28T11:27:33.000Z</time>
      </trkpt>
      <trkpt lat="46.36155" lon="6.01381">
        <ele>1444.1</ele>
        <time>2022-05-28T11:27:42.303Z</time>
      </trkpt>
      <trkpt lat="46.36155" lon="6.0138">
        <ele>1443.8</ele>
        <time>2022-05-28T11:27:55.000Z</time>
      </trkpt>
      <trkpt lat="46.36163" lon="6.0137">
        <ele>1441.3</ele>
        <time>2022-05-28T11:28:04.320Z</time>
      </trkpt>
      <trkpt lat="46.36175" lon="6.01365">
        <ele>1437.7</ele>
        <time>2022-05-28T11:28:14.000Z</time>
      </trkpt>
      <trkpt lat="46.36175" lon="6.01364">
        <ele>1437.4</ele>
        <time>2022-05-28T11:28:23.541Z</time>
      </trkpt>
      <trkpt lat="46.36187" lon="6.01364">
        <ele>1433.7</ele>
        <time>2022-05-28T11:28:33.261Z</time>
      </trkpt>
      <trkpt lat="46.36189" lon="6.01363">
        <ele>1433</ele>
        <time>2022-05-28T11:28:42.562Z</time>
      </trkpt>
      <trkpt lat="46.362" lon="6.01355">
        <ele>1428.9</ele>
        <time>2022-05-28T11:28:51.605Z</time>
      </trkpt>
      <trkpt lat="46.36208" lon="6.01348">
        <ele>1426.1</ele>
        <time>2022-05-28T11:29:01.338Z</time>
      </trkpt>
      <trkpt lat="46.3622" lon="6.01339">
        <ele>1422.2</ele>
        <time>2022-05-28T11:29:10.560Z</time>
      </trkpt>
      <trkpt lat="46.36227" lon="6.01337">
        <ele>1420.3</ele>
        <time>2022-05-28T11:29:20.000Z</time>
      </trkpt>
      <trkpt lat="46.36231" lon="6.01334">
        <ele>1418.9</ele>
        <time>2022-05-28T11:29:29.319Z</time>
      </trkpt>
      <trkpt lat="46.36242" lon="6.01331">
        <ele>1415.9</ele>
        <time>2022-05-28T11:29:38.741Z</time>
      </trkpt>
      <trkpt lat="46.3625" lon="6.0133">
        <ele>1413.8</ele>
        <time>2022-05-28T11:29:49.000Z</time>
      </trkpt>
      <trkpt lat="46.36251" lon="6.01312">
        <ele>1412.2</ele>
        <time>2022-05-28T11:29:58.163Z</time>
      </trkpt>
      <trkpt lat="46.36264" lon="6.01317">
        <ele>1408.9</ele>
        <time>2022-05-28T11:30:08.000Z</time>
      </trkpt>
      <trkpt lat="46.3627" lon="6.01313">
        <ele>1406.6</ele>
        <time>2022-05-28T11:30:17.665Z</time>
      </trkpt>
      <trkpt lat="46.36281" lon="6.01312">
        <ele>1403</ele>
        <time>2022-05-28T11:30:27.000Z</time>
      </trkpt>
      <trkpt lat="46.36285" lon="6.01315">
        <ele>1402.2</ele>
        <time>2022-05-28T11:30:36.342Z</time>
      </trkpt>
      <trkpt lat="46.36292" lon="6.01314">
        <ele>1399.4</ele>
        <time>2022-05-28T11:30:45.526Z</time>
      </trkpt>
      <trkpt lat="46.36296" lon="6.01314">
        <ele>1397.9</ele>
        <time>2022-05-28T11:30:54.744Z</time>
      </trkpt>
      <trkpt lat="46.36306" lon="6.01312">
        <ele>1393.5</ele>
        <time>2022-05-28T11:31:03.806Z</time>
      </trkpt>
      <trkpt lat="46.36308" lon="6.0131">
        <ele>1392.2</ele>
        <time>2022-05-28T11:31:14.000Z</time>
      </trkpt>
      <trkpt lat="46.3632" lon="6.01309">
        <ele>1387</ele>
        <time>2022-05-28T11:31:23.169Z</time>
      </trkpt>
      <trkpt lat="46.36322" lon="6.0131">
        <ele>1386.6</ele>
        <time>2022-05-28T11:31:32.185Z</time>
      </trkpt>
      <trkpt lat="46.36332" lon="6.01316">
        <ele>1383.6</ele>
        <time>2022-05-28T11:31:41.408Z</time>
      </trkpt>
      <trkpt lat="46.36334" lon="6.01317">
        <ele>1382.9</ele>
        <time>2022-05-28T11:31:51.000Z</time>
      </trkpt>
      <trkpt lat="46.36353" lon="6.01311">
        <ele>1379.2</ele>
        <time>2022-05-28T11:32:00.427Z</time>
      </trkpt>
      <trkpt lat="46.36367" lon="6.01303">
        <ele>1374.6</ele>
        <time>2022-05-28T11:32:09.706Z</time>
      </trkpt>
      <trkpt lat="46.36373" lon="6.013">
        <ele>1373</ele>
        <time>2022-05-28T11:32:19.000Z</time>
      </trkpt>
      <trkpt lat="46.36388" lon="6.01299">
        <ele>1370.2</ele>
        <time>2022-05-28T11:32:28.468Z</time>
      </trkpt>
      <trkpt lat="46.36396" lon="6.013">
        <ele>1367.3</ele>
        <time>2022-05-28T11:32:38.384Z</time>
      </trkpt>
      <trkpt lat="46.36397" lon="6.01301">
        <ele>1367</ele>
        <time>2022-05-28T11:32:48.000Z</time>
      </trkpt>
      <trkpt lat="46.36403" lon="6.01308">
        <ele>1366</ele>
        <time>2022-05-28T11:32:57.267Z</time>
      </trkpt>
      <trkpt lat="46.36413" lon="6.01298">
        <ele>1360.4</ele>
        <time>2022-05-28T11:33:06.605Z</time>
      </trkpt>
      <trkpt lat="46.36428" lon="6.0129">
        <ele>1356.4</ele>
        <time>2022-05-28T11:33:16.000Z</time>
      </trkpt>
      <trkpt lat="46.3644" lon="6.01292">
        <ele>1354.4</ele>
        <time>2022-05-28T11:33:25.040Z</time>
      </trkpt>
      <trkpt lat="46.36452" lon="6.01302">
        <ele>1352.7</ele>
        <time>2022-05-28T11:33:34.526Z</time>
      </trkpt>
      <trkpt lat="46.36461" lon="6.01315">
        <ele>1352.9</ele>
        <time>2022-05-28T11:33:44.589Z</time>
      </trkpt>
      <trkpt lat="46.36471" lon="6.01326">
        <ele>1352.5</ele>
        <time>2022-05-28T11:33:54.027Z</time>
      </trkpt>
      <trkpt lat="46.36474" lon="6.01337">
        <ele>1352.9</ele>
        <time>2022-05-28T11:34:04.364Z</time>
      </trkpt>
      <trkpt lat="46.36478" lon="6.01348">
        <ele>1352.9</ele>
        <time>2022-05-28T11:34:14.247Z</time>
      </trkpt>
      <trkpt lat="46.36482" lon="6.01363">
        <ele>1353.3</ele>
        <time>2022-05-28T11:34:24.000Z</time>
      </trkpt>
      <trkpt lat="46.36489" lon="6.01373">
        <ele>1352.3</ele>
        <time>2022-05-28T11:34:33.726Z</time>
      </trkpt>
      <trkpt lat="46.36497" lon="6.01385">
        <ele>1349.5</ele>
        <time>2022-05-28T11:34:43.000Z</time>
      </trkpt>
      <trkpt lat="46.36507" lon="6.01392">
        <ele>1345.6</ele>
        <time>2022-05-28T11:34:52.309Z</time>
      </trkpt>
      <trkpt lat="46.36508" lon="6.01392">
        <ele>1345.1</ele>
        <time>2022-05-28T11:35:01.505Z</time>
      </trkpt>
      <trkpt lat="46.36519" lon="6.01399">
        <ele>1341.6</ele>
        <time>2022-05-28T11:35:11.589Z</time>
      </trkpt>
      <trkpt lat="46.36528" lon="6.01407">
        <ele>1339</ele>
        <time>2022-05-28T11:35:21.227Z</time>
      </trkpt>
      <trkpt lat="46.36527" lon="6.01408">
        <ele>1339.2</ele>
        <time>2022-05-28T11:35:42.000Z</time>
      </trkpt>
      <trkpt lat="46.36536" lon="6.01416">
        <ele>1338.7</ele>
        <time>2022-05-28T11:35:52.000Z</time>
      </trkpt>
      <trkpt lat="46.36537" lon="6.01437">
        <ele>1338.7</ele>
        <time>2022-05-28T11:36:01.365Z</time>
      </trkpt>
      <trkpt lat="46.36544" lon="6.01451">
        <ele>1338.7</ele>
        <time>2022-05-28T11:36:11.000Z</time>
      </trkpt>
      <trkpt lat="46.36555" lon="6.01454">
        <ele>1338.4</ele>
        <time>2022-05-28T11:36:20.447Z</time>
      </trkpt>
      <trkpt lat="46.36564" lon="6.01455">
        <ele>1336.9</ele>
        <time>2022-05-28T11:36:30.000Z</time>
      </trkpt>
      <trkpt lat="46.36574" lon="6.01457">
        <ele>1335.2</ele>
        <time>2022-05-28T11:36:39.365Z</time>
      </trkpt>
      <trkpt lat="46.36586" lon="6.01458">
        <ele>1333.2</ele>
        <time>2022-05-28T11:36:49.000Z</time>
      </trkpt>
      <trkpt lat="46.36593" lon="6.01465">
        <ele>1332.8</ele>
        <time>2022-05-28T11:36:58.645Z</time>
      </trkpt>
      <trkpt lat="46.36604" lon="6.01467">
        <ele>1331</ele>
        <time>2022-05-28T11:37:08.042Z</time>
      </trkpt>
      <trkpt lat="46.36608" lon="6.01467">
        <ele>1330.2</ele>
        <time>2022-05-28T11:37:17.226Z</time>
      </trkpt>
      <trkpt lat="46.36618" lon="6.01468">
        <ele>1329.1</ele>
        <time>2022-05-28T11:37:26.364Z</time>
      </trkpt>
    </trkseg>
  </trk>
</gpx>